FR1683 / EI-DWE 7700 Squawk Report (26th of September, 2021)

Aircraft B738 Reg No. EI-DWE Age 14 years old
Model 737 Jet engines 2 First flight 18-09-07
Registered 27-09-07 Rollout 05-09-07 Delivered 27-09-07
Construction No. 36074 Line No. 2391 Series 8AS
ADSHEX 4CA56A Airline name Ryanair Owner N/A
Airfield based Dublin~Co Dublin~EI First tracked N/A

Flight history for EI-DWE

Route Flight No Date Playback
Alicante (ALC) - Niederrhein (NRN) FR6213 2021-10-22 14:04:00
Belfast International (BFS) - Alicante (ALC) FR1307 2021-10-22 12:34:00
Alicante (ALC) - Belfast International (BFS) FR1308 2021-10-22 09:12:00
Glasgow (GLA) - Alicante (ALC) FR2522 2021-10-21 20:53:00
Alicante (ALC) - Glasgow (GLA) FR2521 2021-10-21 17:24:00
Gatwick (LGW) - Alicante (ALC) FR2715 2021-10-21 14:25:00
Alicante (ALC) - Gatwick (LGW) FR2714 2021-10-21 08:50:00
Billund (BLL) - Alicante (ALC) FR9067 2021-10-20 18:28:00
Alicante (ALC) - Billund (BLL) FR9066 2021-10-20 14:14:00
Bristol (BRS) - Alicante (ALC) FR2292 2021-10-20 10:39:00
Alicante (ALC) - Bristol (BRS) FR2291 2021-10-20 08:20:00
Newcastle (NCL) - Alicante (ALC) FR4080 2021-10-19 22:00:00
Alicante (ALC) - Newcastle (NCL) FR4079 2021-10-19 19:00:00
Karmoy (HAU) - Alicante (ALC) FR5599 2021-10-19 14:58:00
Alicante (ALC) - Karmoy (HAU) FR5598 2021-10-19 09:24:00
Manchester (MAN) - Alicante (ALC) FR9073 2021-10-19 04:59:00
Alicante (ALC) - Manchester (MAN) FR9072 2021-10-18 18:46:00
Merignac (BOD) - Alicante (ALC) FR6524 2021-10-18 14:40:00
Alicante (ALC) - Merignac (BOD) FR6523 2021-10-18 13:30:00
Ciampino (CIA) - Alicante (ALC) FR4030 2021-10-18 10:21:00
Time Lat Lon Altitude Heading Speed Vertical Rate
2021-09-26 09:08:36 GMT 49.490524 2.029507 1,425 122 157 -832
2021-09-26 09:08:33 GMT 49.491920 2.026235 1,475 123 164 -832
2021-09-26 09:08:29 GMT 49.496017 2.016642 1,625 124 171 -896
2021-09-26 09:08:19 GMT 49.497986 2.012160 1,700 123 173 -896
2021-09-26 09:08:09 GMT 49.502438 2.001664 1,875 122 171 -960
2021-09-26 09:08:00 GMT 49.505951 1.993440 1,950 123 169 0
2021-09-26 09:07:56 GMT 49.507980 1.988748 1,950 124 169 0
2021-09-26 09:07:50 GMT 49.510437 1.983394 1,950 126 169 0
2021-09-26 09:07:47 GMT 49.512451 1.979201 1,950 126 169 0
2021-09-26 09:07:41 GMT 49.515102 1.973753 1,925 127 173 0
2021-09-26 09:07:38 GMT 49.516357 1.971304 1,925 126 177 0
2021-09-26 09:07:28 GMT 49.525131 1.953181 2,200 76 200 -384
2021-09-26 09:07:20 GMT 49.525131 1.953181 2,000 120 188 -1088
2021-09-26 09:07:16 GMT 49.527054 1.947833 2,075 107 191 -896
2021-09-26 09:07:02 GMT 49.527485 1.928991 2,200 76 200 -384
2021-09-26 09:06:55 GMT 49.526001 1.920005 2,250 76 200 -256
2021-09-26 09:06:45 GMT 49.523808 1.906054 2,300 76 200 -384
2021-09-26 09:06:37 GMT 49.521946 1.894548 2,350 76 207 -448
2021-09-26 09:06:27 GMT 49.518173 1.870942 2,425 76 212 -256
2021-09-26 09:06:16 GMT 49.517010 1.864187 2,500 73 222 -576
2021-09-26 09:06:04 GMT 49.512447 1.846149 2,575 63 231 -576
2021-09-26 09:05:56 GMT 49.508743 1.834861 2,650 63 236 -448
2021-09-26 09:05:47 GMT 49.503662 1.819321 2,700 63 245 -256
2021-09-26 09:05:37 GMT 49.498344 1.803168 2,800 63 249 -576
2021-09-26 09:05:26 GMT 49.493042 1.787158 2,900 62 254 -512
2021-09-26 09:05:15 GMT 49.487137 1.769522 2,975 63 262 -384
2021-09-26 09:05:06 GMT 49.482048 1.754101 3,025 62 274 -640
2021-09-26 09:04:55 GMT 49.475922 1.735623 3,350 62 277 -1408
2021-09-26 09:04:45 GMT 49.470062 1.718132 3,450 62 277 -2176
2021-09-26 09:04:34 GMT 49.463745 1.699267 3,825 62 277 -2112
2021-09-26 09:04:25 GMT 49.457611 1.680908 4,200 62 277 -1984
2021-09-26 09:04:15 GMT 49.452026 1.664501 4,500 62 278 -1920
2021-09-26 09:04:05 GMT 49.446110 1.647430 4,800 61 280 -1664
2021-09-26 09:03:53 GMT 49.438801 1.626496 5,100 61 285 -1664
2021-09-26 09:03:44 GMT 49.433350 1.611087 5,300 60 289 -1216
2021-09-26 09:03:38 GMT 49.429321 1.600390 5,425 57 297 -768
2021-09-26 09:03:34 GMT 49.425980 1.592454 5,475 56 299 -704
2021-09-26 09:03:25 GMT 49.418694 1.575454 5,550 56 313 -448
2021-09-26 09:03:18 GMT 49.413666 1.563817 5,600 56 320 -448
2021-09-26 09:03:14 GMT 49.410313 1.556156 5,625 56 329 -320
2021-09-26 09:03:07 GMT 49.404282 1.542171 5,675 56 350 -320
2021-09-26 09:03:01 GMT 49.398998 1.529918 5,700 56 363 -1216
2021-09-26 09:02:58 GMT 49.396408 1.523930 5,725 56 355 -384
2021-09-26 09:02:54 GMT 49.392811 1.515463 5,775 56 361 -960
2021-09-26 09:02:45 GMT 49.384521 1.496092 6,025 56 370 -2176
2021-09-26 09:02:42 GMT 49.381760 1.489704 6,175 56 372 -2688
2021-09-26 09:02:37 GMT 49.376934 1.478312 6,350 57 376 -2752
2021-09-26 09:02:32 GMT 49.372055 1.466675 6,625 57 379 -2496
2021-09-26 09:02:23 GMT 49.363220 1.445547 7,075 57 381 -2944
2021-09-26 09:02:14 GMT 49.354309 1.424175 7,625 57 382 -2752
2021-09-26 09:02:08 GMT 49.349075 1.411673 7,775 55 386 -1408
2021-09-26 09:02:07 GMT 49.347977 1.409137 7,825 55 386 -1408
2021-09-26 09:02:03 GMT 49.344719 1.401552 7,925 54 386 -1280
2021-09-26 09:01:59 GMT 49.337086 1.386157 8,075 51 388 -1152
2021-09-26 09:01:56 GMT 49.337086 1.386157 8,075 47 387 -1088
2021-09-26 09:01:55 GMT 49.336014 1.384277 8,075 43 387 -960
2021-09-26 09:01:52 GMT 49.331917 1.377700 8,175 43 387 -960
2021-09-26 09:01:49 GMT 49.328568 1.372868 8,175 42 387 -960
2021-09-26 09:01:48 GMT 49.326473 1.369966 8,200 42 387 -1024
2021-09-26 09:01:46 GMT 49.323898 1.366319 8,250 42 387 -1024
2021-09-26 09:01:44 GMT 49.320930 1.362232 8,325 42 386 -1088
2021-09-26 09:01:41 GMT 49.316883 1.356522 8,325 42 387 -1088
2021-09-26 09:01:40 GMT 49.315624 1.354788 8,350 42 387 -1088
2021-09-26 09:01:38 GMT 49.313156 1.351318 8,375 42 388 -1024
2021-09-26 09:01:37 GMT 49.311901 1.349511 8,400 42 388 -1024
2021-09-26 09:01:36 GMT 49.308411 1.344596 8,425 42 388 -1024
2021-09-26 09:01:33 GMT 49.306549 1.341994 8,450 42 389 -1024
2021-09-26 09:01:32 GMT 49.304684 1.339320 8,475 42 389 -1024
2021-09-26 09:01:30 GMT 49.302109 1.335754 8,525 42 390 -1024
2021-09-26 09:01:29 GMT 49.300644 1.333712 8,525 42 390 -1024
2021-09-26 09:01:27 GMT 49.293777 1.323993 8,625 42 390 -1024
2021-09-26 09:01:23 GMT 49.293777 1.323993 8,625 42 391 -960
2021-09-26 09:01:21 GMT 49.291077 1.320261 8,675 42 391 -960
2021-09-26 09:01:20 GMT 49.289749 1.318430 8,675 42 391 -960
2021-09-26 09:01:19 GMT 49.283432 1.309486 8,675 42 391 -960
2021-09-26 09:01:16 GMT 49.283432 1.309486 8,750 42 392 -960
2021-09-26 09:01:14 GMT 49.281006 1.306105 8,775 42 392 -960
2021-09-26 09:01:13 GMT 49.279640 1.304121 8,800 42 392 -960
2021-09-26 09:01:12 GMT 49.278397 1.302443 8,800 42 392 -960
2021-09-26 09:01:10 GMT 49.275467 1.298288 8,850 42 392 -960
2021-09-26 09:01:09 GMT 49.271164 1.292232 8,875 42 392 -960
2021-09-26 09:01:07 GMT 49.271164 1.292232 8,900 42 392 -896
2021-09-26 09:01:03 GMT 49.265350 1.284027 8,975 42 392 -896
2021-09-26 09:01:00 GMT 49.262604 1.280196 8,975 42 392 -896
2021-09-26 09:00:55 GMT 49.257481 1.272968 9,050 42 393 -896
2021-09-26 09:00:53 GMT 49.253429 1.267258 9,075 42 393 -960
2021-09-26 09:00:51 GMT 49.251480 1.264484 9,150 42 393 -960
2021-09-26 09:00:47 GMT 49.246449 1.257429 9,275 42 393 -1024
2021-09-26 09:00:45 GMT 49.243011 1.252582 9,275 42 393 -1024
2021-09-26 09:00:42 GMT 49.238815 1.246731 9,275 42 393 -1024
2021-09-26 09:00:41 GMT 49.237324 1.244563 9,275 42 393 -1024
2021-09-26 09:00:40 GMT 49.236145 1.242864 9,300 42 393 -1024
2021-09-26 09:00:38 GMT 49.233124 1.238638 9,325 42 394 -1024
2021-09-26 09:00:35 GMT 49.228851 1.232637 9,400 42 394 -1024
2021-09-26 09:00:33 GMT 49.223602 1.225257 9,450 42 396 -1024
2021-09-26 09:00:31 GMT 49.223602 1.225257 9,450 42 396 -1024
2021-09-26 09:00:29 GMT 49.220901 1.221454 9,475 42 396 -1024
2021-09-26 09:00:27 GMT 49.217911 1.217170 9,525 42 396 -1024
2021-09-26 09:00:24 GMT 49.213676 1.211243 9,575 42 397 -1024
2021-09-26 09:00:22 GMT 49.211243 1.207792 9,600 42 397 -1024
2021-09-26 09:00:20 GMT 49.209484 1.205316 9,625 42 397 -1024
2021-09-26 09:00:17 GMT 49.205704 1.199975 9,700 42 397 -1024
2021-09-26 09:00:15 GMT 49.203247 1.196498 9,700 42 397 -1024
2021-09-26 09:00:14 GMT 49.201199 1.193679 9,800 42 397 -1088
2021-09-26 09:00:12 GMT 49.198082 1.189198 9,800 42 397 -1024
2021-09-26 09:00:09 GMT 49.194305 1.183918 9,825 42 397 -1024
2021-09-26 09:00:07 GMT 49.191425 1.179874 9,850 42 398 -1024
2021-09-26 09:00:05 GMT 49.189087 1.176593 9,875 42 397 -1024
2021-09-26 09:00:04 GMT 49.187141 1.173875 9,900 42 397 -1024
2021-09-26 09:00:01 GMT 49.183548 1.168847 10,025 42 397 -1024
2021-09-26 08:59:56 GMT 49.176899 1.159491 10,025 42 398 -1088
2021-09-26 08:59:54 GMT 49.174248 1.155805 10,100 42 397 -1024
2021-09-26 08:59:52 GMT 49.170151 1.150095 10,175 42 397 -1024
2021-09-26 08:59:49 GMT 49.166473 1.145036 10,175 42 397 -1024
2021-09-26 08:59:47 GMT 49.164230 1.141874 10,200 42 395 -1024
2021-09-26 08:59:43 GMT 49.159348 1.135133 10,275 42 395 -1024
2021-09-26 08:59:41 GMT 49.155346 1.129496 10,325 42 395 -960
2021-09-26 08:59:40 GMT 49.154041 1.127689 10,325 42 395 -960
2021-09-26 08:59:39 GMT 49.152740 1.125887 10,350 42 394 -896
2021-09-26 08:59:35 GMT 49.149109 1.120822 10,425 42 394 -896
2021-09-26 08:59:33 GMT 49.144958 1.115042 10,450 42 392 -896
2021-09-26 08:59:31 GMT 49.143661 1.113233 10,450 42 392 -896
2021-09-26 08:59:28 GMT 49.138824 1.106450 10,525 42 392 -960
2021-09-26 08:59:27 GMT 49.136902 1.103844 10,550 42 391 -1024
2021-09-26 08:59:25 GMT 49.132629 1.097838 10,625 42 391 -1024
2021-09-26 08:59:22 GMT 49.130672 1.095091 10,625 42 391 -1024
2021-09-26 08:59:21 GMT 49.129944 1.094126 10,650 42 391 -1024
2021-09-26 08:59:20 GMT 49.128719 1.092345 10,650 42 391 -960
2021-09-26 08:59:18 GMT 49.126190 1.088844 10,675 42 391 -1344
2021-09-26 08:59:13 GMT 49.119049 1.078914 10,800 42 391 -1856
2021-09-26 08:59:11 GMT 49.116753 1.075721 10,850 42 392 -2368
2021-09-26 08:59:10 GMT 49.113586 1.071384 10,950 42 392 -2880
2021-09-26 08:59:08 GMT 49.112366 1.069618 11,025 42 393 -2816
2021-09-26 08:59:05 GMT 49.108749 1.064617 11,200 42 394 -2496
2021-09-26 08:59:03 GMT 49.104950 1.059336 11,475 42 396 -2112
2021-09-26 08:59:00 GMT 49.102203 1.055462 11,475 42 397 -2112
2021-09-26 08:58:52 GMT 49.089569 1.037856 11,800 42 402 -2816
2021-09-26 08:58:49 GMT 49.077209 1.020602 11,800 42 402 -2816
2021-09-26 08:58:42 GMT 49.077209 1.020602 12,225 42 406 -2624
2021-09-26 08:58:39 GMT 49.073692 1.015729 12,225 42 406 -2624
2021-09-26 08:58:37 GMT 49.069923 1.010453 12,350 42 411 -2496
2021-09-26 08:58:34 GMT 49.064713 1.003136 12,500 42 409 -2496
2021-09-26 08:58:31 GMT 49.061874 0.999263 12,575 42 411 -2496
2021-09-26 08:58:29 GMT 49.059357 0.995708 12,675 42 411 -2496
2021-09-26 08:58:26 GMT 49.055145 0.989755 12,800 42 411 -2496
2021-09-26 08:58:24 GMT 49.051765 0.985083 12,900 42 414 -2496
2021-09-26 08:58:23 GMT 49.050137 0.982843 12,925 42 414 -2496
2021-09-26 08:58:21 GMT 49.046814 0.978135 13,050 42 414 -2496
2021-09-26 08:58:18 GMT 49.042503 0.972073 13,175 42 414 -2496
2021-09-26 08:58:12 GMT 49.034637 0.961087 13,500 42 415 -2432
2021-09-26 08:58:09 GMT 49.031097 0.956100 13,500 42 415 -2432
2021-09-26 08:58:06 GMT 49.026123 0.949191 13,650 42 415 -2432
2021-09-26 08:58:05 GMT 49.024117 0.946414 13,750 42 415 -2368
2021-09-26 08:58:02 GMT 49.022049 0.943557 13,750 42 415 -2368
2021-09-26 08:58:01 GMT 49.020718 0.941644 13,800 42 415 -2432
2021-09-26 08:58:00 GMT 49.018482 0.938536 13,850 42 414 -2432
2021-09-26 08:57:59 GMT 49.016968 0.936444 13,950 42 414 -2432
2021-09-26 08:57:57 GMT 49.013489 0.931584 14,000 42 415 -2432
2021-09-26 08:57:55 GMT 49.006989 0.922570 14,125 42 414 -2432
2021-09-26 08:57:53 GMT 49.006989 0.922570 14,225 42 414 -2432
2021-09-26 08:57:49 GMT 48.998325 0.910564 14,325 42 413 -2432
2021-09-26 08:57:46 GMT 48.998325 0.910564 14,450 42 413 -2432
2021-09-26 08:57:42 GMT 48.991482 0.901096 14,625 42 413 -2496
2021-09-26 08:57:39 GMT 48.987350 0.895386 14,725 42 413 -2496
2021-09-26 08:57:37 GMT 48.985847 0.893290 14,800 41 413 -2496
2021-09-26 08:57:33 GMT 48.979843 0.885339 14,975 39 415 -2496
2021-09-26 08:57:31 GMT 48.976677 0.881436 15,050 38 416 -2496
2021-09-26 08:57:30 GMT 48.975235 0.879629 15,100 38 416 -2496
2021-09-26 08:57:28 GMT 48.972336 0.876089 15,175 37 418 -2432
2021-09-26 08:57:23 GMT 48.965134 0.867848 15,400 35 420 -2432
2021-09-26 08:57:21 GMT 48.960571 0.862860 15,450 34 421 -2368
2021-09-26 08:57:18 GMT 48.954147 0.856283 15,625 30 427 -2304
2021-09-26 08:57:15 GMT 48.951736 0.853835 15,725 30 427 -2304
2021-09-26 08:57:11 GMT 48.944324 0.846887 15,875 30 427 -2304
2021-09-26 08:57:09 GMT 48.941719 0.844502 15,925 30 428 -2304
2021-09-26 08:57:08 GMT 48.939240 0.842356 15,975 29 429 -2368
2021-09-26 08:57:07 GMT 48.937572 0.840888 16,025 28 430 -2496
2021-09-26 08:57:05 GMT 48.934269 0.838141 16,100 28 430 -2496
2021-09-26 08:57:04 GMT 48.932316 0.836479 16,150 27 430 -2752
2021-09-26 08:57:02 GMT 48.928543 0.833515 16,200 27 430 -2752
2021-09-26 08:57:00 GMT 48.923283 0.829612 16,550 25 431 -3200
2021-09-26 08:56:57 GMT 48.919830 0.827144 16,550 24 430 -3840
2021-09-26 08:56:55 GMT 48.916393 0.824914 16,675 22 431 -4096
2021-09-26 08:56:52 GMT 48.911133 0.821651 16,925 21 432 -3904
2021-09-26 08:56:50 GMT 48.907127 0.819277 17,400 20 433 -4160
2021-09-26 08:56:47 GMT 48.895908 0.812844 17,400 20 433 -4160
2021-09-26 08:56:44 GMT 48.895908 0.812844 17,400 20 433 -4288
2021-09-26 08:56:43 GMT 48.893143 0.811298 17,525 20 433 -4288
2021-09-26 08:56:40 GMT 48.888062 0.808340 17,700 20 434 -4288
2021-09-26 08:56:39 GMT 48.885315 0.806791 17,825 20 434 -4352
2021-09-26 08:56:35 GMT 48.879478 0.803448 18,050 20 435 -4352
2021-09-26 08:56:31 GMT 48.872402 0.799400 18,750 20 443 -4800
2021-09-26 08:56:28 GMT 48.860321 0.792495 18,750 20 443 -4800
2021-09-26 08:56:25 GMT 48.860321 0.792495 18,875 20 443 -4800
2021-09-26 08:56:21 GMT 48.851669 0.787565 19,075 20 443 -4800
2021-09-26 08:56:18 GMT 48.847183 0.784959 19,275 20 443 -4800
2021-09-26 08:56:14 GMT 48.833950 0.777427 19,625 20 443 -4800
2021-09-26 08:56:11 GMT 48.833950 0.777427 19,750 20 443 -4800
2021-09-26 08:56:10 GMT 48.831760 0.776199 19,925 20 443 -4352
2021-09-26 08:56:07 GMT 48.826035 0.772916 20,050 20 447 -3328
2021-09-26 08:56:06 GMT 48.823895 0.771717 20,150 20 448 -2752
2021-09-26 08:56:04 GMT 48.820076 0.769549 20,200 20 448 -2752
2021-09-26 08:56:02 GMT 48.817841 0.768339 20,200 20 449 -2944
2021-09-26 08:56:00 GMT 48.807739 0.762610 20,450 20 449 -3072
2021-09-26 08:55:57 GMT 48.807739 0.762610 20,450 20 450 -3200
2021-09-26 08:55:56 GMT 48.804577 0.760876 20,600 20 450 -3200
2021-09-26 08:55:55 GMT 48.802322 0.759536 20,750 20 450 -3200
2021-09-26 08:55:53 GMT 48.798203 0.757212 21,050 20 451 -3648
2021-09-26 08:55:51 GMT 48.794998 0.755451 21,050 20 451 -3648
2021-09-26 08:55:48 GMT 48.788979 0.751985 21,050 20 451 -3776
2021-09-26 08:55:47 GMT 48.786839 0.750757 21,125 20 451 -3456
2021-09-26 08:55:44 GMT 48.775711 0.744468 21,400 20 451 -3456
2021-09-26 08:55:41 GMT 48.775711 0.744468 21,550 20 453 -3264
2021-09-26 08:55:39 GMT 48.772079 0.742372 21,550 20 454 -3072
2021-09-26 08:55:38 GMT 48.769054 0.740638 21,625 20 454 -3072
2021-09-26 08:55:34 GMT 48.761330 0.736229 21,900 20 455 -3008
2021-09-26 08:55:32 GMT 48.757465 0.734060 21,925 20 457 -2944
2021-09-26 08:55:31 GMT 48.755173 0.732704 22,000 20 457 -2944
2021-09-26 08:55:29 GMT 48.752064 0.730952 22,075 20 457 -2944
2021-09-26 08:55:28 GMT 48.749725 0.729675 22,125 20 457 -2944
2021-09-26 08:55:27 GMT 48.743362 0.726013 22,275 20 458 -3008
2021-09-26 08:55:25 GMT 48.743362 0.726013 22,300 20 459 -2944
2021-09-26 08:55:24 GMT 48.741264 0.724809 22,325 20 459 -2944
2021-09-26 08:55:22 GMT 48.737633 0.722785 22,425 20 460 -2944
2021-09-26 08:55:20 GMT 48.733536 0.720472 22,525 20 461 -2944
2021-09-26 08:55:19 GMT 48.731369 0.719182 22,575 20 461 -2944
2021-09-26 08:55:17 GMT 48.726971 0.716713 22,700 20 462 -3008
2021-09-26 08:55:15 GMT 48.724178 0.715123 22,750 20 462 -3008
2021-09-26 08:55:14 GMT 48.721012 0.713316 22,850 20 463 -3136
2021-09-26 08:55:11 GMT 48.715939 0.710425 22,975 20 464 -3200
2021-09-26 08:55:10 GMT 48.713287 0.708907 23,050 20 464 -3200
2021-09-26 08:55:08 GMT 48.709095 0.706594 23,325 20 465 -3136
2021-09-26 08:55:04 GMT 48.701019 0.701928 23,375 20 468 -3008
2021-09-26 08:54:58 GMT 48.682755 0.691575 24,125 20 470 -3072
2021-09-26 08:54:55 GMT 48.682755 0.691575 24,125 20 470 -3072
2021-09-26 08:54:51 GMT 48.675110 0.687279 24,125 20 473 -3008
2021-09-26 08:54:48 GMT 48.668316 0.683393 24,125 20 473 -2944
2021-09-26 08:54:47 GMT 48.666080 0.682092 24,225 20 475 -3264
2021-09-26 08:54:44 GMT 48.660095 0.678687 24,325 20 475 -3264
2021-09-26 08:54:42 GMT 48.657257 0.677068 24,450 20 475 -3264
2021-09-26 08:54:41 GMT 48.654072 0.675298 24,525 20 476 -3328
2021-09-26 08:54:39 GMT 48.649841 0.672842 24,700 20 477 -3200
2021-09-26 08:54:37 GMT 48.645447 0.670377 24,750 20 479 -3008
2021-09-26 08:54:35 GMT 48.641129 0.667925 24,850 20 481 -2688
2021-09-26 08:54:34 GMT 48.639359 0.666926 24,875 20 481 -2624
2021-09-26 08:54:32 GMT 48.635056 0.664391 24,925 20 483 -3072
2021-09-26 08:54:29 GMT 48.631165 0.662208 25,050 20 483 -3072
2021-09-26 08:54:27 GMT 48.626083 0.659321 25,225 20 483 -3264
2021-09-26 08:54:25 GMT 48.619576 0.655638 26,150 20 483 -4544
2021-09-26 08:54:22 GMT 48.615372 0.653264 26,150 20 482 -4992
2021-09-26 08:54:20 GMT 48.608730 0.649422 26,150 20 480 -5120
2021-09-26 08:54:17 GMT 48.603748 0.646531 26,150 20 480 -5184
2021-09-26 08:54:15 GMT 48.599808 0.644320 26,200 20 479 -5184
2021-09-26 08:54:14 GMT 48.597656 0.643052 26,275 20 479 -5056
2021-09-26 08:54:12 GMT 48.595184 0.641644 26,375 20 479 -4992
2021-09-26 08:54:10 GMT 48.589691 0.638508 26,575 20 478 -4672
2021-09-26 08:54:09 GMT 48.586853 0.636855 26,675 20 478 -4352
2021-09-26 08:54:08 GMT 48.583405 0.634894 26,800 20 478 -4160
2021-09-26 08:54:05 GMT 48.578522 0.632066 27,050 20 479 -3584
2021-09-26 08:54:03 GMT 48.575226 0.630235 27,050 20 479 -3520
2021-09-26 08:54:02 GMT 48.574280 0.629690 27,075 20 479 -3328
2021-09-26 08:54:00 GMT 48.570145 0.627277 27,200 20 479 -3136
2021-09-26 08:53:59 GMT 48.568222 0.626221 27,300 20 479 -3072
2021-09-26 08:53:58 GMT 48.566414 0.625137 27,300 20 479 -3008
2021-09-26 08:53:56 GMT 48.554729 0.618487 27,425 20 479 -2496
2021-09-26 08:53:53 GMT 48.554729 0.618487 27,600 20 479 -2496
2021-09-26 08:53:51 GMT 48.550598 0.616079 27,650 20 479 -2304
2021-09-26 08:53:49 GMT 48.546303 0.613644 27,700 20 479 -1856
2021-09-26 08:53:47 GMT 48.540668 0.610392 27,775 20 479 -1472
2021-09-26 08:53:46 GMT 48.540668 0.610392 27,775 20 479 -1216
2021-09-26 08:53:45 GMT 48.538437 0.609163 27,800 20 479 -1024
2021-09-26 08:53:44 GMT 48.536316 0.607981 27,825 20 479 -960
2021-09-26 08:53:42 GMT 48.532059 0.605516 27,850 20 478 -960
2021-09-26 08:53:40 GMT 48.528240 0.603308 27,875 20 478 -960
2021-09-26 08:53:39 GMT 48.521484 0.599459 27,950 20 478 -960
2021-09-26 08:53:37 GMT 48.521484 0.599459 27,950 20 477 -960
2021-09-26 08:53:36 GMT 48.519241 0.598191 27,950 20 477 -896
2021-09-26 08:53:34 GMT 48.515030 0.595797 27,975 20 477 -896
2021-09-26 08:53:33 GMT 48.512878 0.594529 28,000 20 476 -896
2021-09-26 08:53:31 GMT 48.508667 0.592135 28,025 20 476 -896
2021-09-26 08:53:29 GMT 48.504406 0.589720 28,075 20 476 -960
2021-09-26 08:53:28 GMT 48.502579 0.588684 28,075 20 476 -960
2021-09-26 08:53:25 GMT 48.495026 0.584388 28,125 20 476 -960
2021-09-26 08:53:22 GMT 48.490582 0.581842 28,175 20 476 -896
2021-09-26 08:53:21 GMT 48.487648 0.580179 28,200 20 476 -896
2021-09-26 08:53:20 GMT 48.485779 0.579106 28,200 20 476 -896
2021-09-26 08:53:17 GMT 48.481503 0.576638 28,225 20 476 -896
2021-09-26 08:53:16 GMT 48.479645 0.575585 28,250 20 476 -896
2021-09-26 08:53:15 GMT 48.477631 0.574458 28,275 20 476 -960
2021-09-26 08:53:12 GMT 48.471306 0.570855 28,325 20 476 -960
2021-09-26 08:53:11 GMT 48.469494 0.569771 28,350 20 475 -960
2021-09-26 08:53:09 GMT 48.463623 0.566430 28,400 20 475 -960
2021-09-26 08:53:07 GMT 48.459435 0.564061 28,400 20 475 -960
2021-09-26 08:53:06 GMT 48.458359 0.563472 28,400 20 475 -896
2021-09-26 08:53:04 GMT 48.455063 0.561570 28,475 20 475 -896
2021-09-26 08:53:02 GMT 48.449844 0.558683 28,475 20 474 -960
2021-09-26 08:53:01 GMT 48.447968 0.557556 28,525 20 474 -960
2021-09-26 08:52:59 GMT 48.441605 0.553964 28,550 20 473 -960
2021-09-26 08:52:57 GMT 48.439373 0.552713 28,575 20 473 -960
2021-09-26 08:52:55 GMT 48.433090 0.549176 28,600 20 472 -1024
2021-09-26 08:52:52 GMT 48.428852 0.546787 28,650 20 471 -1024
2021-09-26 08:52:51 GMT 48.426819 0.545584 28,675 20 471 -1024
2021-09-26 08:52:49 GMT 48.422661 0.543245 28,700 20 471 -1024
2021-09-26 08:52:48 GMT 48.420567 0.542089 28,725 20 471 -1024
2021-09-26 08:52:47 GMT 48.413303 0.537969 28,750 20 471 -1024
2021-09-26 08:52:45 GMT 48.413303 0.537969 28,775 20 470 -1024
2021-09-26 08:52:44 GMT 48.411396 0.536885 28,775 20 470 -1024
2021-09-26 08:52:42 GMT 48.407391 0.534644 28,800 20 470 -1024
2021-09-26 08:52:40 GMT 48.403290 0.532344 28,850 20 471 -1024
2021-09-26 08:52:38 GMT 48.400269 0.530669 28,850 20 471 -960
2021-09-26 08:52:37 GMT 48.397980 0.529386 28,900 20 471 -960
2021-09-26 08:52:36 GMT 48.396149 0.528400 28,925 20 471 -960
2021-09-26 08:52:34 GMT 48.392262 0.526187 28,950 20 471 -1024
2021-09-26 08:52:33 GMT 48.390152 0.525020 28,950 20 471 -1024
2021-09-26 08:52:31 GMT 48.385712 0.522555 29,000 20 471 -960
2021-09-26 08:52:29 GMT 48.383423 0.521217 29,025 20 471 -960
2021-09-26 08:52:27 GMT 48.379181 0.518887 29,050 19 470 -960
2021-09-26 08:52:25 GMT 48.374908 0.516639 29,075 18 470 -960
2021-09-26 08:52:24 GMT 48.368271 0.513259 29,125 17 470 -960
2021-09-26 08:52:22 GMT 48.368271 0.513259 29,150 17 470 -960
2021-09-26 08:52:20 GMT 48.361954 0.510230 29,175 16 470 -960
2021-09-26 08:52:18 GMT 48.359955 0.509346 29,200 16 469 -960
2021-09-26 08:52:17 GMT 48.357815 0.508407 29,225 15 470 -960
2021-09-26 08:52:16 GMT 48.354034 0.506780 29,250 15 470 -960
2021-09-26 08:52:14 GMT 48.350922 0.505512 29,250 14 469 -960
2021-09-26 08:52:13 GMT 48.349045 0.504737 29,300 14 469 -960
2021-09-26 08:52:12 GMT 48.347153 0.503998 29,300 14 469 -960
2021-09-26 08:52:10 GMT 48.342957 0.502413 29,325 13 469 -960
2021-09-26 08:52:09 GMT 48.339890 0.501323 29,350 13 469 -960
2021-09-26 08:52:08 GMT 48.337982 0.500601 29,350 12 468 -960
2021-09-26 08:52:06 GMT 48.333977 0.499300 29,400 11 467 -960
2021-09-26 08:52:04 GMT 48.331787 0.498540 29,400 11 467 -960
2021-09-26 08:52:03 GMT 48.329681 0.497906 29,450 10 467 -960
2021-09-26 08:52:01 GMT 48.325104 0.496568 29,450 10 466 -960
2021-09-26 08:52:00 GMT 48.322899 0.495975 29,475 9 466 -960
2021-09-26 08:51:59 GMT 48.319839 0.495089 29,500 9 466 -960
2021-09-26 08:51:58 GMT 48.317917 0.494596 29,525 8 465 -896
2021-09-26 08:51:57 GMT 48.315033 0.493892 29,525 8 465 -896
2021-09-26 08:51:56 GMT 48.313820 0.493590 29,550 8 464 -960
2021-09-26 08:51:54 GMT 48.308887 0.492506 29,575 7 463 -960
2021-09-26 08:51:53 GMT 48.306744 0.492072 29,600 7 463 -960
2021-09-26 08:51:52 GMT 48.304321 0.491568 29,600 6 463 -960
2021-09-26 08:51:51 GMT 48.297760 0.490409 29,650 6 462 -960
2021-09-26 08:51:49 GMT 48.297760 0.490409 29,650 5 462 -960
2021-09-26 08:51:48 GMT 48.295525 0.490048 29,675 5 462 -896
2021-09-26 08:51:46 GMT 48.291779 0.489525 29,700 4 461 -896
2021-09-26 08:51:45 GMT 48.288620 0.489103 29,700 4 461 -960
2021-09-26 08:51:42 GMT 48.283951 0.488539 29,750 4 460 -896
2021-09-26 08:51:41 GMT 48.281048 0.488169 29,775 4 459 -896
2021-09-26 08:51:40 GMT 48.278767 0.487880 29,800 4 459 -896
2021-09-26 08:51:38 GMT 48.275162 0.487483 29,825 4 459 -896
2021-09-26 08:51:37 GMT 48.272095 0.487061 29,850 4 459 -896
2021-09-26 08:51:35 GMT 48.268982 0.486708 29,875 4 459 -896
2021-09-26 08:51:33 GMT 48.264862 0.486215 29,900 4 458 -896
2021-09-26 08:51:32 GMT 48.262707 0.485928 29,900 4 458 -896
2021-09-26 08:51:31 GMT 48.259869 0.485639 29,925 4 458 -896
2021-09-26 08:51:28 GMT 48.252140 0.484699 30,000 4 456 -896
2021-09-26 08:51:25 GMT 48.247375 0.484173 30,000 4 456 -896
2021-09-26 08:51:22 GMT 48.240646 0.483398 30,050 4 455 -896
2021-09-26 08:51:21 GMT 48.238449 0.483187 30,075 4 455 -896
2021-09-26 08:51:19 GMT 48.235008 0.482748 30,125 4 454 -832
2021-09-26 08:51:17 GMT 48.229752 0.482201 30,125 3 453 -832
2021-09-26 08:51:16 GMT 48.223755 0.481638 30,175 3 452 -896
2021-09-26 08:51:14 GMT 48.223755 0.481638 30,175 3 451 -896
2021-09-26 08:51:13 GMT 48.221741 0.481427 30,175 3 451 -896
2021-09-26 08:51:12 GMT 48.216522 0.480934 30,225 3 451 -960
2021-09-26 08:51:09 GMT 48.213455 0.480652 30,250 4 451 -960
2021-09-26 08:51:07 GMT 48.210434 0.480370 30,275 5 450 -960
2021-09-26 08:51:06 GMT 48.203476 0.479384 30,325 6 451 -896
2021-09-26 08:51:04 GMT 48.203476 0.479384 30,325 7 450 -896
2021-09-26 08:51:02 GMT 48.196602 0.477905 30,375 10 450 -832
2021-09-26 08:50:59 GMT 48.193531 0.477110 30,400 12 452 -896
2021-09-26 08:50:57 GMT 48.189285 0.475793 30,425 14 451 -896
2021-09-26 08:50:55 GMT 48.185337 0.474364 30,450 15 452 -896
2021-09-26 08:50:54 GMT 48.183426 0.473539 30,475 18 453 -896
2021-09-26 08:50:51 GMT 48.176468 0.470370 30,500 22 453 -960
2021-09-26 08:50:49 GMT 48.174397 0.469304 30,525 22 453 -960
2021-09-26 08:50:48 GMT 48.171185 0.467497 30,575 22 453 -960
2021-09-26 08:50:46 GMT 48.168228 0.465722 30,575 25 454 -960
2021-09-26 08:50:44 GMT 48.164295 0.463233 30,625 26 453 -960
2021-09-26 08:50:42 GMT 48.160664 0.460558 30,650 27 454 -960
2021-09-26 08:50:41 GMT 48.158802 0.459102 30,675 29 453 -960
2021-09-26 08:50:39 GMT 48.154659 0.455792 30,700 30 453 -960
2021-09-26 08:50:38 GMT 48.152611 0.454031 30,700 30 453 -960
2021-09-26 08:50:37 GMT 48.150841 0.452411 30,750 32 452 -960
2021-09-26 08:50:35 GMT 48.141037 0.442337 30,825 35 453 -960
2021-09-26 08:50:32 GMT 48.141037 0.442337 30,825 38 453 -960
2021-09-26 08:50:31 GMT 48.139530 0.440510 30,850 39 453 -960
2021-09-26 08:50:29 GMT 48.134720 0.434509 30,900 40 453 -960
2021-09-26 08:50:27 GMT 48.133163 0.432449 30,900 42 454 -960
2021-09-26 08:50:26 GMT 48.131561 0.430115 30,925 43 454 -960
2021-09-26 08:50:25 GMT 48.130127 0.428044 30,975 45 454 -896
2021-09-26 08:50:23 GMT 48.127148 0.423396 30,975 47 455 -896
2021-09-26 08:50:21 GMT 48.124493 0.418959 31,000 49 455 -896
2021-09-26 08:50:20 GMT 48.120483 0.411507 31,075 53 456 -960
2021-09-26 08:50:18 GMT 48.120483 0.411507 31,075 53 456 -960
2021-09-26 08:50:16 GMT 48.117966 0.406219 31,075 54 457 -960
2021-09-26 08:50:14 GMT 48.115952 0.401482 31,100 60 458 -896
2021-09-26 08:50:12 GMT 48.114899 0.398872 31,150 60 458 -896
2021-09-26 08:50:11 GMT 48.113926 0.396353 31,175 62 459 -896
2021-09-26 08:50:09 GMT 48.111969 0.390770 31,175 65 460 -832
2021-09-26 08:50:07 GMT 48.110153 0.385085 31,200 65 460 -832
2021-09-26 08:50:05 GMT 48.107780 0.376352 31,225 69 462 -896
2021-09-26 08:50:04 GMT 48.107071 0.373466 31,250 71 463 -1024
2021-09-26 08:50:03 GMT 48.106384 0.370720 31,275 71 463 -1024
2021-09-26 08:50:02 GMT 48.104370 0.361931 31,300 71 463 -1024
2021-09-26 08:50:00 GMT 48.104370 0.361931 31,325 71 463 -1024
2021-09-26 08:49:58 GMT 48.103134 0.356300 31,350 71 463 -1024
2021-09-26 08:49:57 GMT 48.102146 0.351844 31,425 71 462 -1024
2021-09-26 08:49:55 GMT 48.100704 0.345224 31,425 71 462 -1024
2021-09-26 08:49:54 GMT 48.100067 0.342293 31,425 71 463 -1024
2021-09-26 08:49:52 GMT 48.098648 0.335907 31,475 71 463 -1088
2021-09-26 08:49:51 GMT 48.097958 0.332618 31,475 71 464 -1088
2021-09-26 08:49:47 GMT 48.095581 0.321762 31,525 71 465 -1024
2021-09-26 08:49:46 GMT 48.094894 0.318741 31,550 71 467 -1024
2021-09-26 08:49:43 GMT 48.093384 0.311600 31,575 71 469 -896
2021-09-26 08:49:41 GMT 48.091488 0.303110 31,625 71 470 -896
2021-09-26 08:49:39 GMT 48.090179 0.297112 31,650 71 472 -1024
2021-09-26 08:49:38 GMT 48.089493 0.294022 31,675 71 472 -1024
2021-09-26 08:49:37 GMT 48.087997 0.287194 31,700 71 472 -1024
2021-09-26 08:49:36 GMT 48.087391 0.284518 31,725 71 473 -1280
2021-09-26 08:49:34 GMT 48.086746 0.281593 31,750 71 473 -1280
2021-09-26 08:49:32 GMT 48.085575 0.276208 31,800 71 473 -1408
2021-09-26 08:49:30 GMT 48.084000 0.268959 31,850 71 474 -1536
2021-09-26 08:49:28 GMT 48.082947 0.264153 31,875 71 474 -1536
2021-09-26 08:49:26 GMT 48.081482 0.257561 31,925 72 474 -1472
2021-09-26 08:49:24 GMT 48.079193 0.246986 32,025 72 474 -1472
2021-09-26 08:49:21 GMT 48.076630 0.234970 32,100 72 474 -1472
2021-09-26 08:49:19 GMT 48.076630 0.234970 32,125 72 474 -1472
2021-09-26 08:49:17 GMT 48.075008 0.227403 32,175 72 474 -1536
2021-09-26 08:49:15 GMT 48.073936 0.222473 32,225 72 474 -1536
2021-09-26 08:49:13 GMT 48.072540 0.215994 32,275 72 474 -1536
2021-09-26 08:49:11 GMT 48.070587 0.206886 32,350 72 474 -1536
2021-09-26 08:49:10 GMT 48.070587 0.206886 32,350 72 474 -1536
2021-09-26 08:49:08 GMT 48.069077 0.200020 32,400 71 475 -1536
2021-09-26 08:49:05 GMT 48.067791 0.194162 32,450 71 475 -1536
2021-09-26 08:49:03 GMT 48.065781 0.184914 32,550 71 475 -1536
2021-09-26 08:49:01 GMT 48.064766 0.180218 32,550 71 475 -1536
2021-09-26 08:49:00 GMT 48.064041 0.176949 32,575 71 475 -1536
2021-09-26 08:48:59 GMT 48.063370 0.173809 32,600 71 475 -1536
2021-09-26 08:48:58 GMT 48.062622 0.170425 32,625 71 475 -1536
2021-09-26 08:48:57 GMT 48.061935 0.167336 32,650 71 475 -1536
2021-09-26 08:48:55 GMT 48.059464 0.156143 32,725 71 476 -1472
2021-09-26 08:48:54 GMT 48.058090 0.149826 32,775 71 476 -1472
2021-09-26 08:48:52 GMT 48.058090 0.149826 32,800 71 476 -1472
2021-09-26 08:48:50 GMT 48.056671 0.143440 32,850 71 475 -1536
2021-09-26 08:48:48 GMT 48.056122 0.140968 32,875 71 475 -1536
2021-09-26 08:48:47 GMT 48.053467 0.128677 32,925 71 475 -1536
2021-09-26 08:48:45 GMT 48.053467 0.128677 33,000 71 475 -1536
2021-09-26 08:48:43 GMT 48.052689 0.125175 33,000 71 475 -1536
2021-09-26 08:48:42 GMT 48.051910 0.121674 33,025 71 475 -1472
2021-09-26 08:48:41 GMT 48.051224 0.118446 33,150 71 475 -1472
2021-09-26 08:48:39 GMT 48.049870 0.112187 33,150 71 474 -1472
2021-09-26 08:48:37 GMT 48.048157 0.104439 33,200 72 474 -1408
2021-09-26 08:48:35 GMT 48.046703 0.097680 33,275 72 474 -1408
2021-09-26 08:48:33 GMT 48.045685 0.093109 33,275 72 474 -1408
2021-09-26 08:48:32 GMT 48.044983 0.089863 33,325 72 473 -1472
2021-09-26 08:48:30 GMT 48.043446 0.082890 33,350 71 472 -1472
2021-09-26 08:48:29 GMT 48.042793 0.079721 33,425 71 472 -1472
2021-09-26 08:48:27 GMT 48.041748 0.075050 33,425 71 470 -1472
2021-09-26 08:48:25 GMT 48.039917 0.066673 33,475 71 470 -1472
2021-09-26 08:48:23 GMT 48.038910 0.062073 33,550 71 469 -1472
2021-09-26 08:48:22 GMT 48.038177 0.058846 33,550 71 469 -1472
2021-09-26 08:48:21 GMT 48.037445 0.055550 33,575 71 468 -1536
2021-09-26 08:48:18 GMT 48.035347 0.046058 33,675 71 467 -1472
2021-09-26 08:48:17 GMT 48.034367 0.041692 33,700 71 466 -1472
2021-09-26 08:48:15 GMT 48.032181 0.031973 33,775 71 465 -1472
2021-09-26 08:48:12 GMT 48.031540 0.029182 33,775 71 465 -1472
2021-09-26 08:48:11 GMT 48.030075 0.022591 33,800 71 463 -1472
2021-09-26 08:48:09 GMT 48.029022 0.017853 33,900 71 463 -1472
2021-09-26 08:48:08 GMT 48.028610 0.016136 33,900 71 462 -1472
2021-09-26 08:48:07 GMT 48.027058 0.009226 33,975 71 462 -1472
2021-09-26 08:48:05 GMT 48.026459 0.006523 33,975 71 462 -1472
2021-09-26 08:48:04 GMT 48.025726 0.003365 34,025 71 462 -1472
2021-09-26 08:48:02 GMT 48.024361 -0.002887 34,075 71 460 -1536
2021-09-26 08:48:00 GMT 48.023026 -0.008789 34,150 71 459 -1600
2021-09-26 08:47:59 GMT 48.021706 -0.014578 34,175 71 459 -1600
2021-09-26 08:47:57 GMT 48.021057 -0.017509 34,225 71 458 -1600
2021-09-26 08:47:56 GMT 48.020416 -0.020393 34,250 71 458 -1600
2021-09-26 08:47:55 GMT 48.019657 -0.023663 34,250 71 458 -1600
2021-09-26 08:47:53 GMT 48.018219 -0.030144 34,300 71 458 -1600
2021-09-26 08:47:52 GMT 48.017563 -0.033170 34,325 71 458 -1600
2021-09-26 08:47:51 GMT 48.016891 -0.036049 34,350 71 458 -1600
2021-09-26 08:47:50 GMT 48.016205 -0.039207 34,375 71 458 -1600
2021-09-26 08:47:48 GMT 48.014877 -0.045250 34,450 71 458 -1600
2021-09-26 08:47:46 GMT 48.014145 -0.048409 34,550 71 458 -1600
2021-09-26 08:47:44 GMT 48.012211 -0.057256 34,550 71 458 -1600
2021-09-26 08:47:42 GMT 48.010860 -0.063101 34,600 71 460 -1536
2021-09-26 08:47:40 GMT 48.009521 -0.069145 34,650 71 460 -1536
2021-09-26 08:47:39 GMT 48.008812 -0.072186 34,700 71 461 -1472
2021-09-26 08:47:37 GMT 48.007782 -0.076698 34,750 70 461 -1472
2021-09-26 08:47:35 GMT 48.006500 -0.082191 34,775 70 461 -1472
2021-09-26 08:47:34 GMT 48.005768 -0.085419 34,775 70 463 -1472
2021-09-26 08:47:32 GMT 48.004017 -0.092961 34,850 70 463 -1536
2021-09-26 08:47:30 GMT 48.002518 -0.099152 34,900 70 463 -1664
2021-09-26 08:47:28 GMT 48.000320 -0.108490 35,000 70 463 -1792
2021-09-26 08:47:27 GMT 48.000320 -0.108490 35,000 70 463 -1984
2021-09-26 08:47:25 GMT 47.998947 -0.114189 35,125 70 463 -1984
2021-09-26 08:47:23 GMT 47.997406 -0.120709 35,125 70 465 -2368
2021-09-26 08:47:20 GMT 47.993729 -0.135991 35,350 70 465 -2368
2021-09-26 08:47:18 GMT 47.993729 -0.135991 35,350 70 465 -2368
2021-09-26 08:47:17 GMT 47.992889 -0.139583 35,375 70 465 -2368
2021-09-26 08:47:15 GMT 47.992081 -0.143028 35,425 70 465 -2304
2021-09-26 08:47:14 GMT 47.991440 -0.145844 35,550 70 465 -2368
2021-09-26 08:47:12 GMT 47.989975 -0.151955 35,575 70 465 -2496
2021-09-26 08:47:10 GMT 47.988510 -0.158203 35,600 70 465 -2496
2021-09-26 08:47:08 GMT 47.986862 -0.165207 35,725 70 465 -2560
2021-09-26 08:47:07 GMT 47.986141 -0.168105 35,750 70 465 -2496
2021-09-26 08:47:06 GMT 47.985443 -0.171112 35,800 70 465 -2496
2021-09-26 08:47:04 GMT 47.983795 -0.178116 35,900 70 466 -2368
2021-09-26 08:47:03 GMT 47.983063 -0.181206 35,925 70 466 -2368
2021-09-26 08:47:02 GMT 47.982368 -0.184091 35,975 70 466 -2304
2021-09-26 08:47:00 GMT 47.980865 -0.190475 36,050 70 466 -2304
2021-09-26 08:46:59 GMT 47.980087 -0.193771 36,075 70 466 -2368
2021-09-26 08:46:56 GMT 47.978600 -0.200008 36,200 70 466 -2560
2021-09-26 08:46:55 GMT 47.977844 -0.203041 36,200 70 466 -2688
2021-09-26 08:46:54 GMT 47.977154 -0.206064 36,250 70 466 -2752
2021-09-26 08:46:52 GMT 47.974827 -0.215853 36,375 70 466 -3072
2021-09-26 08:46:49 GMT 47.972809 -0.224190 36,550 70 465 -3008
2021-09-26 08:46:47 GMT 47.970497 -0.233671 36,675 70 465 -2944
2021-09-26 08:46:45 GMT 47.970497 -0.233671 36,700 70 465 -2880
2021-09-26 08:46:43 GMT 47.969196 -0.239164 36,775 70 465 -2496
2021-09-26 08:46:42 GMT 47.968170 -0.243389 36,850 70 466 -2240
2021-09-26 08:46:41 GMT 47.966774 -0.249094 36,900 70 466 -1600
2021-09-26 08:46:39 GMT 47.965988 -0.252274 36,900 70 466 -1408
2021-09-26 08:46:38 GMT 47.965191 -0.255503 36,950 70 467 -960
2021-09-26 08:46:37 GMT 47.964523 -0.258385 36,950 70 467 -704
2021-09-26 08:46:35 GMT 47.963001 -0.264658 36,975 70 469 -320
2021-09-26 08:46:34 GMT 47.962372 -0.267174 36,975 70 470 -128
2021-09-26 08:46:32 GMT 47.960953 -0.273079 37,000 70 470 -64
2021-09-26 08:46:30 GMT 47.959232 -0.280081 37,000 70 470 64
2021-09-26 08:46:29 GMT 47.958210 -0.284377 37,000 70 470 64
2021-09-26 08:46:27 GMT 47.956673 -0.290574 37,000 70 470 64
2021-09-26 08:46:25 GMT 47.954903 -0.297969 37,000 70 470 64
2021-09-26 08:46:23 GMT 47.953880 -0.302194 37,000 70 470 64
2021-09-26 08:46:22 GMT 47.953125 -0.305283 37,000 70 470 64
2021-09-26 08:46:20 GMT 47.951782 -0.310927 37,000 70 470 64
2021-09-26 08:46:18 GMT 47.950481 -0.316350 37,000 70 470 128
2021-09-26 08:46:17 GMT 47.949688 -0.319519 37,000 70 471 128
2021-09-26 08:46:16 GMT 47.949005 -0.322449 36,975 70 471 128
2021-09-26 08:46:14 GMT 47.947220 -0.329933 36,975 70 471 128
2021-09-26 08:46:13 GMT 47.946533 -0.332748 36,975 70 471 128
2021-09-26 08:46:11 GMT 47.945160 -0.338585 36,975 70 472 0
2021-09-26 08:46:09 GMT 47.943962 -0.343675 36,975 70 475 0
2021-09-26 08:46:07 GMT 47.941727 -0.353073 36,975 70 475 0
2021-09-26 08:46:04 GMT 47.940308 -0.359116 36,975 70 475 0
2021-09-26 08:46:02 GMT 47.938751 -0.365570 36,975 70 475 64
2021-09-26 08:46:00 GMT 47.937305 -0.371563 36,975 70 476 64
2021-09-26 08:45:59 GMT 47.936600 -0.374496 36,975 70 476 64
2021-09-26 08:45:58 GMT 47.935585 -0.378887 36,975 70 476 0
2021-09-26 08:45:57 GMT 47.934792 -0.382197 36,975 70 477 0
2021-09-26 08:45:55 GMT 47.933395 -0.388023 37,000 70 477 -128
2021-09-26 08:45:54 GMT 47.932606 -0.391353 37,000 70 478 -256
2021-09-26 08:45:52 GMT 47.931519 -0.395782 37,000 70 480 -512
2021-09-26 08:45:50 GMT 47.929825 -0.402786 37,025 70 480 -832
2021-09-26 08:45:48 GMT 47.928509 -0.408255 37,050 70 480 -832
2021-09-26 08:45:47 GMT 47.926228 -0.417762 37,075 70 481 -960
2021-09-26 08:45:45 GMT 47.926228 -0.417762 37,075 70 481 -960
2021-09-26 08:45:43 GMT 47.924412 -0.425227 37,125 70 481 -1088
2021-09-26 08:45:41 GMT 47.923325 -0.429703 37,200 70 482 -1152
2021-09-26 08:45:39 GMT 47.920944 -0.439590 37,200 70 482 -1216
2021-09-26 08:45:38 GMT 47.920944 -0.439590 37,225 70 483 -1344
2021-09-26 08:45:37 GMT 47.920128 -0.442763 37,250 70 483 -1472
2021-09-26 08:45:36 GMT 47.919388 -0.445976 37,275 69 484 -1600
2021-09-26 08:45:34 GMT 47.917786 -0.452499 37,325 69 484 -1600
2021-09-26 08:45:33 GMT 47.917057 -0.455369 37,375 69 485 -1728
2021-09-26 08:45:32 GMT 47.916309 -0.458468 37,400 69 485 -1728
2021-09-26 08:45:31 GMT 47.913940 -0.468018 37,450 69 485 -1856
2021-09-26 08:45:29 GMT 47.913940 -0.468018 37,475 69 485 -1984
2021-09-26 08:45:28 GMT 47.913193 -0.471074 37,550 69 485 -2112
2021-09-26 08:45:26 GMT 47.911606 -0.477493 37,625 69 485 -2304
2021-09-26 08:45:25 GMT 47.910770 -0.480793 37,675 69 485 -2432
2021-09-26 08:45:23 GMT 47.909050 -0.487694 37,725 69 484 -2624
2021-09-26 08:45:21 GMT 47.907558 -0.493751 37,800 69 484 -2880
2021-09-26 08:45:19 GMT 47.906799 -0.496925 37,850 69 484 -3008
2021-09-26 08:45:18 GMT 47.905655 -0.501457 37,925 69 484 -3136
2021-09-26 08:45:17 GMT 47.903603 -0.509808 38,075 69 482 -3520
2021-09-26 08:45:15 GMT 47.903603 -0.509808 38,075 69 481 -3712
2021-09-26 08:45:14 GMT 47.902451 -0.514572 38,175 69 480 -4032
2021-09-26 08:45:12 GMT 47.900665 -0.521713 38,275 69 480 -4032
2021-09-26 08:45:10 GMT 47.898972 -0.528442 38,500 69 478 -4160
2021-09-26 08:45:09 GMT 47.898193 -0.531464 38,575 69 477 -4160
2021-09-26 08:45:07 GMT 47.896225 -0.539154 38,700 69 477 -4096
2021-09-26 08:45:05 GMT 47.895035 -0.543823 38,800 69 475 -3840
2021-09-26 08:45:03 GMT 47.893936 -0.548080 38,975 68 474 -3776
2021-09-26 08:45:02 GMT 47.893127 -0.551147 39,000 68 474 -3648
2021-09-26 08:45:00 GMT 47.891590 -0.557134 39,050 68 473 -3392
2021-09-26 08:44:58 GMT 47.890228 -0.562363 39,150 68 473 -3392
2021-09-26 08:44:57 GMT 47.889450 -0.565453 39,200 68 473 -3008
2021-09-26 08:44:56 GMT 47.888672 -0.568405 39,250 68 473 -3008
2021-09-26 08:44:55 GMT 47.887482 -0.572868 39,325 68 472 -2944
2021-09-26 08:44:54 GMT 47.886703 -0.575821 39,375 68 472 -2752
2021-09-26 08:44:52 GMT 47.885540 -0.580444 39,450 68 472 -2688
2021-09-26 08:44:50 GMT 47.883072 -0.589600 39,575 67 471 -2432
2021-09-26 08:44:48 GMT 47.882217 -0.592850 39,675 67 471 -2368
2021-09-26 08:44:47 GMT 47.880386 -0.599442 39,750 66 469 -2304
2021-09-26 08:44:44 GMT 47.878281 -0.606445 39,800 63 468 -1920
2021-09-26 08:44:43 GMT 47.877136 -0.609879 39,850 63 468 -1856
2021-09-26 08:44:42 GMT 47.876137 -0.612910 39,875 61 466 -1600
2021-09-26 08:44:41 GMT 47.875252 -0.615516 39,900 59 464 -1280
2021-09-26 08:44:40 GMT 47.873154 -0.621071 39,950 59 464 -1216
2021-09-26 08:44:38 GMT 47.872040 -0.623897 39,975 58 464 -1024
2021-09-26 08:44:37 GMT 47.870972 -0.626573 39,975 57 463 -832
2021-09-26 08:44:36 GMT 47.869858 -0.629173 40,000 56 462 -640
2021-09-26 08:44:33 GMT 47.866268 -0.636996 40,000 54 461 -128
2021-09-26 08:44:31 GMT 47.863815 -0.641945 40,000 53 460 0
2021-09-26 08:44:30 GMT 47.862495 -0.644461 40,000 50 459 0
2021-09-26 08:44:29 GMT 47.861343 -0.646545 40,000 49 459 0
2021-09-26 08:44:28 GMT 47.858727 -0.651081 40,000 48 459 0
2021-09-26 08:44:26 GMT 47.857086 -0.653755 40,000 46 457 0
2021-09-26 08:44:25 GMT 47.855621 -0.656021 40,000 45 457 0
2021-09-26 08:44:24 GMT 47.852627 -0.660447 40,000 42 455 0
2021-09-26 08:44:22 GMT 47.850861 -0.662888 40,000 42 455 0
2021-09-26 08:44:21 GMT 47.849232 -0.665095 40,000 39 455 0
2021-09-26 08:44:20 GMT 47.847927 -0.666786 40,000 39 455 0
2021-09-26 08:44:17 GMT 47.842712 -0.672983 40,000 34 452 0
2021-09-26 08:44:16 GMT 47.840927 -0.674904 40,000 34 452 0
2021-09-26 08:44:15 GMT 47.837639 -0.678335 40,000 33 451 0
2021-09-26 08:44:13 GMT 47.835823 -0.680096 40,000 31 450 -64
2021-09-26 08:44:11 GMT 47.832470 -0.683124 40,000 30 450 -64
2021-09-26 08:44:10 GMT 47.830563 -0.684744 40,000 29 449 -64
2021-09-26 08:44:08 GMT 47.826698 -0.687843 40,000 27 449 -64
2021-09-26 08:44:06 GMT 47.823021 -0.690519 40,000 24 447 0
2021-09-26 08:44:04 GMT 47.819157 -0.692984 40,000 22 446 0
2021-09-26 08:44:02 GMT 47.817108 -0.694251 40,000 21 446 0
2021-09-26 08:43:59 GMT 47.803253 -0.700722 40,000 15 443 0
2021-09-26 08:43:56 GMT 47.803253 -0.700722 40,000 13 441 -64
2021-09-26 08:43:54 GMT 47.801193 -0.701408 40,000 11 441 -64
2021-09-26 08:43:53 GMT 47.799362 -0.701958 40,000 8 440 -64
2021-09-26 08:43:51 GMT 47.795151 -0.703056 40,000 7 439 -64
2021-09-26 08:43:49 GMT 47.791031 -0.703880 40,025 6 438 -64
2021-09-26 08:43:48 GMT 47.788944 -0.704181 40,025 4 438 -64
2021-09-26 08:43:47 GMT 47.786911 -0.704430 40,025 4 438 -64
2021-09-26 08:43:45 GMT 47.783020 -0.704773 40,025 1 436 64
2021-09-26 08:43:44 GMT 47.780846 -0.704886 40,025 0 436 64
2021-09-26 08:43:43 GMT 47.778843 -0.704886 40,025 0 436 64
2021-09-26 08:43:42 GMT 47.775211 -0.704745 40,000 357 434 128
2021-09-26 08:43:39 GMT 47.769581 -0.704181 40,000 354 433 64
2021-09-26 08:43:37 GMT 47.765900 -0.703688 40,000 354 433 64
2021-09-26 08:43:36 GMT 47.764114 -0.703331 40,000 353 432 0
2021-09-26 08:43:34 GMT 47.760361 -0.702644 40,000 353 432 0
2021-09-26 08:43:33 GMT 47.753517 -0.701224 40,000 353 432 0
2021-09-26 08:43:31 GMT 47.753517 -0.701224 40,000 352 431 0
2021-09-26 08:43:29 GMT 47.751343 -0.700790 40,000 352 431 64
2021-09-26 08:43:28 GMT 47.749142 -0.700308 40,000 352 431 64
2021-09-26 08:43:26 GMT 47.744385 -0.699280 40,000 352 431 64
2021-09-26 08:43:25 GMT 47.742252 -0.698759 40,000 352 431 0
2021-09-26 08:43:22 GMT 47.736282 -0.697495 40,000 352 431 0
2021-09-26 08:43:20 GMT 47.732849 -0.696739 40,000 352 431 0
2021-09-26 08:43:17 GMT 47.722595 -0.694542 40,000 352 431 0
2021-09-26 08:43:11 GMT 47.713806 -0.692619 40,000 352 431 0
2021-09-26 08:43:08 GMT 47.708588 -0.691452 40,000 352 431 0
2021-09-26 08:43:05 GMT 47.704147 -0.690491 40,000 352 431 0
2021-09-26 08:43:01 GMT 47.696259 -0.688758 40,000 352 431 0
2021-09-26 08:42:58 GMT 47.690163 -0.687420 40,000 352 431 0
2021-09-26 08:42:54 GMT 47.681828 -0.685519 40,000 352 431 0
2021-09-26 08:42:52 GMT 47.672516 -0.683476 40,000 352 431 0
2021-09-26 08:42:50 GMT 47.672516 -0.683476 40,000 352 431 0
2021-09-26 08:42:46 GMT 47.665581 -0.681997 40,000 352 432 0
2021-09-26 08:42:41 GMT 47.657135 -0.680122 40,000 352 432 0
2021-09-26 08:42:38 GMT 47.650223 -0.678612 40,000 352 432 0
2021-09-26 08:42:34 GMT 47.642586 -0.676927 40,000 352 432 0
2021-09-26 08:42:30 GMT 47.635323 -0.675307 40,000 352 432 0
2021-09-26 08:42:28 GMT 47.630585 -0.674286 40,000 352 433 64
2021-09-26 08:42:25 GMT 47.615677 -0.670941 40,000 352 433 64
2021-09-26 08:42:21 GMT 47.615677 -0.670941 40,000 352 433 64
2021-09-26 08:42:18 GMT 47.608788 -0.669321 40,000 352 433 64
2021-09-26 08:42:14 GMT 47.603714 -0.668194 40,000 352 433 64
2021-09-26 08:42:10 GMT 47.593750 -0.665941 40,000 352 434 0
2021-09-26 08:42:08 GMT 47.590401 -0.665166 40,000 352 434 -64
2021-09-26 08:42:05 GMT 47.585976 -0.664180 40,000 352 434 -64
2021-09-26 08:42:03 GMT 47.580734 -0.662956 40,000 352 434 -64
2021-09-26 08:42:00 GMT 47.574600 -0.661583 40,000 352 434 0
2021-09-26 08:41:58 GMT 47.569077 -0.660306 40,000 352 433 64
2021-09-26 08:41:55 GMT 47.565811 -0.659592 40,000 352 433 64
2021-09-26 08:41:51 GMT 47.555740 -0.657326 40,000 352 433 64
2021-09-26 08:41:48 GMT 47.549992 -0.656081 40,000 352 434 0
2021-09-26 08:41:45 GMT 47.544983 -0.654922 40,000 352 434 -64
2021-09-26 08:41:41 GMT 47.537201 -0.653275 40,000 352 434 -64
2021-09-26 08:41:39 GMT 47.533138 -0.652348 40,000 352 434 -64
2021-09-26 08:41:36 GMT 47.526577 -0.650940 40,000 352 434 -64
2021-09-26 08:41:33 GMT 47.521545 -0.649841 40,000 352 434 0
2021-09-26 08:41:31 GMT 47.518524 -0.649179 40,000 352 434 0
2021-09-26 08:41:28 GMT 47.511566 -0.647644 40,000 352 434 0
2021-09-26 08:41:25 GMT 47.505157 -0.646271 40,000 352 434 0
2021-09-26 08:41:21 GMT 47.497055 -0.644554 40,000 352 434 0
2021-09-26 08:41:19 GMT 47.493801 -0.643827 40,000 352 434 0
2021-09-26 08:41:16 GMT 47.487564 -0.642489 40,000 352 435 -64
2021-09-26 08:41:13 GMT 47.480759 -0.641052 40,000 352 435 -64
2021-09-26 08:41:11 GMT 47.476810 -0.640235 40,000 352 435 -64
2021-09-26 08:41:08 GMT 47.469921 -0.638827 40,000 352 436 -64
2021-09-26 08:41:05 GMT 47.465126 -0.637770 40,000 352 436 -64
2021-09-26 08:41:02 GMT 47.460480 -0.636864 40,000 353 436 0
2021-09-26 08:40:59 GMT 47.453304 -0.635376 40,000 353 437 0
2021-09-26 08:40:56 GMT 47.447205 -0.634117 40,000 353 437 0
2021-09-26 08:40:53 GMT 47.439289 -0.632559 40,000 353 437 -64
2021-09-26 08:40:49 GMT 47.432419 -0.631165 40,000 353 437 64
2021-09-26 08:40:46 GMT 47.428398 -0.630376 40,000 353 436 576
2021-09-26 08:40:43 GMT 47.421707 -0.629036 39,975 353 437 1152
2021-09-26 08:40:41 GMT 47.418594 -0.628418 39,950 353 436 896
2021-09-26 08:40:39 GMT 47.412197 -0.627136 39,850 353 437 1152
2021-09-26 08:40:36 GMT 47.408428 -0.626432 39,825 353 438 1088
2021-09-26 08:40:33 GMT 47.401657 -0.625122 39,800 353 438 1088
2021-09-26 08:40:31 GMT 47.397812 -0.624319 39,775 353 438 1088
2021-09-26 08:40:28 GMT 47.391907 -0.623199 39,650 353 439 1024
2021-09-26 08:40:24 GMT 47.384171 -0.621689 39,650 353 439 1024
2021-09-26 08:40:21 GMT 47.375561 -0.620094 39,600 353 439 960
2021-09-26 08:40:18 GMT 47.364342 -0.617840 39,475 352 437 704
2021-09-26 08:40:15 GMT 47.364342 -0.617840 39,500 353 439 832
2021-09-26 08:40:11 GMT 47.351395 -0.615234 39,450 353 439 768
2021-09-26 08:40:08 GMT 47.351395 -0.615234 39,400 352 439 704
2021-09-26 08:40:05 GMT 47.344208 -0.613724 39,375 352 439 640
2021-09-26 08:40:03 GMT 47.341919 -0.613243 39,350 352 439 640
2021-09-26 08:39:59 GMT 47.331848 -0.611150 39,275 352 438 576
2021-09-26 08:39:56 GMT 47.327518 -0.610234 39,275 352 438 576
2021-09-26 08:39:53 GMT 47.315369 -0.607681 39,250 352 437 704
2021-09-26 08:39:48 GMT 47.310883 -0.606720 39,200 352 437 768
2021-09-26 08:39:45 GMT 47.305389 -0.605553 39,150 352 437 832
2021-09-26 08:39:42 GMT 47.299438 -0.604317 39,125 352 437 1024
2021-09-26 08:39:40 GMT 47.295639 -0.603493 39,075 352 437 960
2021-09-26 08:39:37 GMT 47.281898 -0.600656 39,000 352 437 960
2021-09-26 08:39:34 GMT 47.281898 -0.600656 38,975 352 437 960
2021-09-26 08:39:28 GMT 47.270164 -0.598191 38,850 352 437 960
2021-09-26 08:39:25 GMT 47.265697 -0.597276 38,800 352 437 960
2021-09-26 08:39:22 GMT 47.260529 -0.596214 38,800 352 437 960
2021-09-26 08:39:16 GMT 47.247849 -0.593536 38,650 352 438 1088
2021-09-26 08:39:12 GMT 47.230087 -0.589760 38,475 352 438 832
2021-09-26 08:39:08 GMT 47.230087 -0.589760 38,550 352 438 832
2021-09-26 08:39:05 GMT 47.225338 -0.588755 38,475 352 437 1152
2021-09-26 08:39:02 GMT 47.214630 -0.586501 38,425 352 437 1152
2021-09-26 08:38:59 GMT 47.214630 -0.586501 38,425 352 437 1152
2021-09-26 08:38:55 GMT 47.205917 -0.584679 38,175 352 438 1088
2021-09-26 08:38:50 GMT 47.194931 -0.582344 38,250 352 438 960
2021-09-26 08:38:47 GMT 47.187653 -0.580833 38,175 352 438 960
2021-09-26 08:38:43 GMT 47.181152 -0.579460 38,125 352 437 896
2021-09-26 08:38:37 GMT 47.168610 -0.576782 37,975 352 437 768
2021-09-26 08:38:34 GMT 47.162724 -0.575585 38,000 352 436 768
2021-09-26 08:38:31 GMT 47.158672 -0.574669 38,000 352 436 768
2021-09-26 08:38:27 GMT 47.148945 -0.572627 37,925 352 435 512
2021-09-26 08:38:25 GMT 47.145687 -0.571993 37,925 352 435 512
2021-09-26 08:38:22 GMT 47.138763 -0.570534 37,900 352 434 576
2021-09-26 08:38:19 GMT 47.132217 -0.569160 37,825 352 433 640
2021-09-26 08:38:16 GMT 47.125259 -0.567719 37,800 352 433 768
2021-09-26 08:38:13 GMT 47.122131 -0.567064 37,725 352 432 768
2021-09-26 08:38:09 GMT 47.114182 -0.565384 37,750 352 432 704
2021-09-26 08:38:05 GMT 47.106583 -0.563805 37,675 352 431 704
2021-09-26 08:38:02 GMT 47.100311 -0.562500 37,650 352 430 768
2021-09-26 08:37:59 GMT 47.094315 -0.561264 37,625 352 430 832
2021-09-26 08:37:56 GMT 47.086239 -0.559598 37,550 352 429 832
2021-09-26 08:37:53 GMT 47.080559 -0.558401 37,525 352 429 704
2021-09-26 08:37:49 GMT 47.074265 -0.557076 37,475 352 429 704
2021-09-26 08:37:44 GMT 47.064880 -0.555153 37,425 352 428 640
2021-09-26 08:37:41 GMT 47.059113 -0.553917 36,850 352 419 832
2021-09-26 08:37:38 GMT 47.053162 -0.552681 37,375 352 427 704
2021-09-26 08:37:34 GMT 47.044418 -0.550827 37,325 352 426 704
2021-09-26 08:37:31 GMT 47.039406 -0.549809 37,250 352 425 832
2021-09-26 08:37:28 GMT 47.034485 -0.548767 37,250 352 425 832
2021-09-26 08:37:24 GMT 47.024792 -0.546711 37,100 352 423 832
2021-09-26 08:37:21 GMT 47.020088 -0.545725 37,100 352 423 768
2021-09-26 08:37:18 GMT 47.014828 -0.544668 37,100 352 423 768
2021-09-26 08:37:14 GMT 47.007286 -0.543049 37,025 352 422 768
2021-09-26 08:37:11 GMT 47.001560 -0.541851 37,025 352 422 768
2021-09-26 08:37:08 GMT 46.994949 -0.540443 36,900 352 420 832
2021-09-26 08:37:05 GMT 46.987518 -0.538879 36,900 352 420 832
2021-09-26 08:37:02 GMT 46.982712 -0.537849 36,850 352 419 832
2021-09-26 08:36:58 GMT 46.974838 -0.536217 36,800 353 410 -64
2021-09-26 08:36:55 GMT 46.967903 -0.534738 36,750 352 418 832
2021-09-26 08:36:52 GMT 46.964035 -0.533936 36,700 352 418 768
2021-09-26 08:36:48 GMT 46.956638 -0.532414 36,675 352 417 704
2021-09-26 08:36:45 GMT 46.950302 -0.531052 36,650 352 416 640
2021-09-26 08:36:42 GMT 46.944901 -0.529884 36,550 352 415 896
2021-09-26 08:36:38 GMT 46.936897 -0.528189 36,575 352 415 832
2021-09-26 08:36:35 GMT 46.931171 -0.526992 36,525 352 415 960
2021-09-26 08:36:32 GMT 46.925217 -0.525696 36,400 352 414 960
2021-09-26 08:36:27 GMT 46.916882 -0.523893 36,075 352 414 960
2021-09-26 08:36:24 GMT 46.910385 -0.522537 36,350 352 413 960
2021-09-26 08:36:21 GMT 46.904221 -0.521217 36,300 352 413 960
2021-09-26 08:36:18 GMT 46.898632 -0.520020 36,000 353 410 -64
2021-09-26 08:36:14 GMT 46.889462 -0.518048 36,150 352 412 1280
2021-09-26 08:36:11 GMT 46.885784 -0.517343 36,100 352 412 832
2021-09-26 08:36:08 GMT 46.880013 -0.516076 36,050 352 412 960
2021-09-26 08:36:05 GMT 46.870422 -0.514091 36,000 353 411 192
2021-09-26 08:36:03 GMT 46.867081 -0.513410 36,000 353 410 -64
2021-09-26 08:36:00 GMT 46.867081 -0.513410 36,000 353 410 -64
2021-09-26 08:35:57 GMT 46.860134 -0.512032 36,000 352 410 0
2021-09-26 08:35:54 GMT 46.853523 -0.510658 36,000 353 409 0
2021-09-26 08:35:51 GMT 46.847488 -0.509390 36,000 353 409 0
2021-09-26 08:35:46 GMT 46.839371 -0.507774 36,000 352 411 64
2021-09-26 08:35:43 GMT 46.832855 -0.506401 36,000 352 411 64
2021-09-26 08:35:39 GMT 46.826244 -0.505028 36,000 352 411 64
2021-09-26 08:35:37 GMT 46.822403 -0.504232 36,000 352 411 0
2021-09-26 08:35:34 GMT 46.815819 -0.502899 36,000 352 411 0
2021-09-26 08:35:31 GMT 46.811207 -0.501938 36,000 352 411 0
2021-09-26 08:35:27 GMT 46.803268 -0.500280 36,000 352 410 0
2021-09-26 08:35:24 GMT 46.796078 -0.498848 36,000 352 411 0
2021-09-26 08:35:21 GMT 46.791275 -0.497801 36,000 352 410 0
2021-09-26 08:35:18 GMT 46.787430 -0.496997 36,000 352 410 0
2021-09-26 08:35:13 GMT 46.777359 -0.494921 36,000 352 410 64
2021-09-26 08:35:10 GMT 46.771683 -0.493715 36,000 352 410 64
2021-09-26 08:35:06 GMT 46.764679 -0.492241 36,000 352 410 -64
2021-09-26 08:35:03 GMT 46.758133 -0.490834 36,000 352 410 0
2021-09-26 08:34:59 GMT 46.749847 -0.489093 36,000 352 410 0
2021-09-26 08:34:56 GMT 46.745663 -0.488205 36,000 352 410 -64
2021-09-26 08:34:53 GMT 46.738354 -0.486626 36,000 352 410 -64
2021-09-26 08:34:51 GMT 46.727089 -0.484222 36,000 352 410 -64
2021-09-26 08:34:46 GMT 46.718243 -0.482368 36,000 352 410 0
2021-09-26 08:34:42 GMT 46.718243 -0.482368 36,000 352 409 0
2021-09-26 08:34:40 GMT 46.714706 -0.481613 36,000 352 409 0
2021-09-26 08:34:37 GMT 46.707813 -0.480103 36,000 352 409 -64
2021-09-26 08:34:34 GMT 46.703346 -0.479210 36,000 352 409 0
2021-09-26 08:34:31 GMT 46.697666 -0.477974 36,000 352 410 0
2021-09-26 08:34:28 GMT 46.693012 -0.477013 36,000 352 410 0
2021-09-26 08:34:25 GMT 46.687195 -0.475777 36,000 352 409 -64
2021-09-26 08:34:22 GMT 46.681366 -0.474556 36,000 352 410 0
2021-09-26 08:34:20 GMT 46.677650 -0.473785 36,000 352 409 0
2021-09-26 08:34:16 GMT 46.663422 -0.470871 36,000 352 409 -64
2021-09-26 08:34:12 GMT 46.663422 -0.470871 36,000 352 409 0
2021-09-26 08:34:09 GMT 46.651161 -0.468361 36,000 352 409 0
2021-09-26 08:34:06 GMT 46.651161 -0.468361 36,000 352 409 -64
2021-09-26 08:34:02 GMT 46.642822 -0.466584 36,000 352 409 0
2021-09-26 08:33:59 GMT 46.637970 -0.465579 36,000 352 409 -64
2021-09-26 08:33:56 GMT 46.632259 -0.464447 36,000 352 409 -64
2021-09-26 08:33:50 GMT 46.619339 -0.461761 36,000 352 408 64
2021-09-26 08:33:47 GMT 46.615677 -0.461024 36,000 352 408 64
2021-09-26 08:33:43 GMT 46.608170 -0.459483 36,000 352 408 64
2021-09-26 08:33:40 GMT 46.598145 -0.457406 36,000 352 409 0
2021-09-26 08:33:37 GMT 46.594482 -0.456670 36,000 352 409 0
2021-09-26 08:33:35 GMT 46.594482 -0.456670 36,000 352 409 0
2021-09-26 08:33:31 GMT 46.586082 -0.454971 36,000 352 409 0
2021-09-26 08:33:29 GMT 46.581566 -0.454010 36,000 352 409 0
2021-09-26 08:33:25 GMT 46.575420 -0.452774 36,000 352 408 0
2021-09-26 08:33:20 GMT 46.565918 -0.450774 36,000 352 408 0
2021-09-26 08:33:18 GMT 46.562107 -0.450027 36,000 353 408 0
2021-09-26 08:33:15 GMT 46.556763 -0.448966 36,000 353 408 0
2021-09-26 08:33:12 GMT 46.549942 -0.447559 36,000 353 408 0
2021-09-26 08:33:10 GMT 46.547012 -0.446956 36,000 353 408 0
2021-09-26 08:33:08 GMT 46.543579 -0.446286 36,000 352 408 0
2021-09-26 08:33:05 GMT 46.536922 -0.444946 36,000 352 408 0
2021-09-26 08:33:01 GMT 46.528656 -0.443205 36,000 352 408 0
2021-09-26 08:32:58 GMT 46.522957 -0.442062 36,000 352 408 0
2021-09-26 08:32:55 GMT 46.518448 -0.441128 36,000 352 408 0
2021-09-26 08:32:52 GMT 46.510807 -0.439590 36,000 352 408 0
2021-09-26 08:32:48 GMT 46.506363 -0.438649 36,000 352 408 0
2021-09-26 08:32:45 GMT 46.500183 -0.437376 36,000 352 408 0
2021-09-26 08:32:42 GMT 46.493546 -0.436037 36,000 352 408 0
2021-09-26 08:32:38 GMT 46.486771 -0.434630 36,000 352 408 0
2021-09-26 08:32:35 GMT 46.482315 -0.433754 36,000 352 408 0
2021-09-26 08:32:32 GMT 46.475891 -0.432449 36,000 352 408 0
2021-09-26 08:32:30 GMT 46.472809 -0.431816 36,000 352 408 0
2021-09-26 08:32:27 GMT 46.467178 -0.430610 36,000 352 408 0
2021-09-26 08:32:24 GMT 46.461739 -0.429497 36,000 352 408 0
2021-09-26 08:32:21 GMT 46.456062 -0.428398 36,000 352 408 0
2021-09-26 08:32:18 GMT 46.450150 -0.427162 36,000 352 408 0
2021-09-26 08:32:15 GMT 46.443306 -0.425720 36,000 352 408 0
2021-09-26 08:32:12 GMT 46.437561 -0.424581 36,000 352 408 0
2021-09-26 08:32:10 GMT 46.434677 -0.423978 36,000 352 408 0
2021-09-26 08:32:08 GMT 46.431015 -0.423242 36,000 352 408 0
2021-09-26 08:32:05 GMT 46.424698 -0.421902 36,000 352 408 0
2021-09-26 08:32:02 GMT 46.418793 -0.420696 36,000 352 408 0
2021-09-26 08:31:58 GMT 46.411880 -0.419289 36,000 352 408 0
2021-09-26 08:31:55 GMT 46.405365 -0.417961 36,000 352 408 0
2021-09-26 08:31:49 GMT 46.394657 -0.415764 36,000 352 408 0
2021-09-26 08:31:47 GMT 46.391632 -0.415146 36,000 352 408 64
2021-09-26 08:31:44 GMT 46.384827 -0.413729 36,000 352 408 64
2021-09-26 08:31:40 GMT 46.378326 -0.412389 36,000 352 408 64
2021-09-26 08:31:37 GMT 46.372780 -0.411301 36,000 352 408 0
2021-09-26 08:31:34 GMT 46.367203 -0.410112 36,000 352 408 0
2021-09-26 08:31:31 GMT 46.361389 -0.408973 36,000 353 408 0
2021-09-26 08:31:27 GMT 46.353275 -0.407318 36,000 353 408 0
2021-09-26 08:31:24 GMT 46.347778 -0.406219 36,000 353 409 0
2021-09-26 08:31:21 GMT 46.343262 -0.405288 36,000 353 409 0
2021-09-26 08:31:19 GMT 46.334473 -0.403547 36,000 353 409 64
2021-09-26 08:31:17 GMT 46.334473 -0.403547 36,000 353 409 64
2021-09-26 08:31:14 GMT 46.327671 -0.402168 36,000 353 409 0
2021-09-26 08:31:11 GMT 46.323479 -0.401344 36,000 353 409 0
2021-09-26 08:31:09 GMT 46.319733 -0.400599 36,000 353 409 0
2021-09-26 08:31:06 GMT 46.314171 -0.399422 36,000 353 409 -64
2021-09-26 08:31:02 GMT 46.304855 -0.397518 36,000 352 410 0
2021-09-26 08:30:59 GMT 46.300995 -0.396744 36,000 352 410 0
2021-09-26 08:30:56 GMT 46.295967 -0.395714 36,000 352 410 0
2021-09-26 08:30:53 GMT 46.290894 -0.394704 36,000 352 410 0
2021-09-26 08:30:49 GMT 46.284393 -0.393364 36,000 352 410 0
2021-09-26 08:30:47 GMT 46.278187 -0.392075 36,000 353 409 -64
2021-09-26 08:30:44 GMT 46.272224 -0.390839 36,000 352 410 0
2021-09-26 08:30:39 GMT 46.264526 -0.389211 36,000 352 410 0
2021-09-26 08:30:36 GMT 46.258911 -0.388092 36,000 352 410 0
2021-09-26 08:30:33 GMT 46.250381 -0.386263 36,000 352 410 0
2021-09-26 08:30:30 GMT 46.245689 -0.385345 36,000 352 410 0
2021-09-26 08:30:26 GMT 46.240292 -0.384178 36,000 352 410 0
2021-09-26 08:30:23 GMT 46.234451 -0.382981 36,000 352 410 0
2021-09-26 08:30:20 GMT 46.228088 -0.381708 36,000 352 410 0
2021-09-26 08:30:17 GMT 46.221252 -0.380264 36,000 353 409 0
2021-09-26 08:30:13 GMT 46.215340 -0.379097 36,000 353 409 0
2021-09-26 08:30:10 GMT 46.209091 -0.377823 36,000 353 409 0
2021-09-26 08:30:08 GMT 46.206116 -0.377220 36,000 353 409 -64
2021-09-26 08:30:06 GMT 46.202454 -0.376483 36,000 353 409 -64
2021-09-26 08:30:03 GMT 46.196671 -0.375320 36,000 353 409 -64
2021-09-26 08:30:00 GMT 46.191273 -0.374222 36,000 353 409 -64
2021-09-26 08:29:57 GMT 46.185734 -0.373123 36,000 353 409 -64
2021-09-26 08:29:53 GMT 46.177185 -0.371391 36,000 353 409 0
2021-09-26 08:29:50 GMT 46.171829 -0.370320 36,000 353 409 0
2021-09-26 08:29:48 GMT 46.167023 -0.369315 36,000 353 409 -64
2021-09-26 08:29:45 GMT 46.161247 -0.368179 36,000 353 409 0
2021-09-26 08:29:42 GMT 46.157547 -0.367439 36,000 353 409 0
2021-09-26 08:29:39 GMT 46.150494 -0.366051 36,000 353 409 0
2021-09-26 08:29:35 GMT 46.142300 -0.364403 36,000 353 410 0
2021-09-26 08:29:32 GMT 46.138184 -0.363554 36,000 353 410 -64
2021-09-26 08:29:29 GMT 46.132149 -0.362343 36,000 353 410 -128
2021-09-26 08:29:26 GMT 46.126648 -0.361276 36,000 353 409 -64
2021-09-26 08:29:23 GMT 46.121025 -0.360146 36,000 353 409 320
2021-09-26 08:29:20 GMT 46.114746 -0.358864 36,000 352 408 832
2021-09-26 08:29:15 GMT 46.107292 -0.357330 35,950 352 408 960
2021-09-26 08:29:12 GMT 46.100590 -0.356026 35,850 352 408 896
2021-09-26 08:29:08 GMT 46.094116 -0.354721 35,825 352 408 896
2021-09-26 08:29:06 GMT 46.089386 -0.353773 35,600 353 405 960
2021-09-26 08:29:03 GMT 46.077530 -0.351362 35,725 353 406 960
2021-09-26 08:29:00 GMT 46.077530 -0.351362 35,650 353 405 960
2021-09-26 08:28:57 GMT 46.070934 -0.350052 35,600 353 405 960
2021-09-26 08:28:54 GMT 46.066372 -0.349159 35,600 353 405 960
2021-09-26 08:28:51 GMT 46.061737 -0.348213 35,550 353 405 960
2021-09-26 08:28:48 GMT 46.055244 -0.346962 35,500 353 404 960
2021-09-26 08:28:45 GMT 46.050686 -0.346001 35,400 353 404 960
2021-09-26 08:28:40 GMT 46.039490 -0.343792 35,350 353 404 960
2021-09-26 08:28:37 GMT 46.035507 -0.342979 35,325 353 404 960
2021-09-26 08:28:34 GMT 46.031067 -0.342117 35,300 353 404 960
2021-09-26 08:28:31 GMT 46.025162 -0.340911 35,250 353 404 960
2021-09-26 08:28:28 GMT 46.019215 -0.339752 35,200 353 403 1024
2021-09-26 08:28:25 GMT 46.013210 -0.338516 35,125 353 403 1088
2021-09-26 08:28:21 GMT 46.006458 -0.337143 35,075 353 402 1152
2021-09-26 08:28:18 GMT 46.000778 -0.336044 35,000 353 402 1216
2021-09-26 08:28:12 GMT 45.990555 -0.334011 34,850 353 402 1280
2021-09-26 08:28:09 GMT 45.983650 -0.332611 34,800 353 402 1280
2021-09-26 08:28:05 GMT 45.976200 -0.331100 34,700 352 401 1280
2021-09-26 08:28:02 GMT 45.970734 -0.329992 34,625 352 401 1344
2021-09-26 08:27:59 GMT 45.964050 -0.328697 34,575 352 400 1408
2021-09-26 08:27:53 GMT 45.953484 -0.326500 34,425 352 400 1408
2021-09-26 08:27:48 GMT 45.945801 -0.324989 34,350 352 400 1536
2021-09-26 08:27:44 GMT 45.938911 -0.323616 34,225 352 400 1664
2021-09-26 08:27:41 GMT 45.933517 -0.322489 34,075 352 400 1664
2021-09-26 08:27:38 GMT 45.927135 -0.321213 34,050 352 400 1728
2021-09-26 08:27:34 GMT 45.919693 -0.319675 33,925 352 400 1728
2021-09-26 08:27:31 GMT 45.913330 -0.318403 33,800 352 401 1728
2021-09-26 08:27:27 GMT 45.907627 -0.317299 33,750 353 401 1728
2021-09-26 08:27:24 GMT 45.901390 -0.316063 33,650 352 401 1664
2021-09-26 08:27:18 GMT 45.888775 -0.313110 33,450 350 399 1792
2021-09-26 08:27:13 GMT 45.881927 -0.311168 33,325 348 398 1856
2021-09-26 08:27:09 GMT 45.874996 -0.308922 33,150 346 398 1792
2021-09-26 08:27:06 GMT 45.868607 -0.306612 32,450 337 393 896
2021-09-26 08:27:03 GMT 45.863205 -0.304469 33,025 345 397 1792
2021-09-26 08:26:58 GMT 45.854645 -0.300784 32,875 342 396 1920
2021-09-26 08:26:53 GMT 45.846817 -0.296966 32,725 341 396 1920
2021-09-26 08:26:49 GMT 45.840267 -0.293472 32,600 338 395 1536
2021-09-26 08:26:46 GMT 45.833378 -0.289421 32,525 337 394 1024
2021-09-26 08:26:44 GMT 45.825806 -0.284707 32,500 337 393 704
2021-09-26 08:26:41 GMT 45.825806 -0.284707 32,450 337 391 640
2021-09-26 08:26:37 GMT 45.817924 -0.279808 32,375 337 390 896
2021-09-26 08:26:34 GMT 45.812988 -0.276787 32,325 337 390 1664
2021-09-26 08:26:30 GMT 45.806259 -0.272649 32,200 337 390 2112
2021-09-26 08:26:26 GMT 45.800812 -0.269232 32,075 337 390 2368
2021-09-26 08:26:23 GMT 45.796322 -0.266487 31,950 337 391 2624
2021-09-26 08:26:19 GMT 45.788177 -0.261461 31,625 337 393 2688
2021-09-26 08:26:15 GMT 45.782455 -0.257911 31,600 337 394 2624
2021-09-26 08:26:11 GMT 45.774445 -0.252954 31,425 337 395 1856
2021-09-26 08:26:06 GMT 45.766388 -0.247948 31,275 337 395 1920
2021-09-26 08:26:02 GMT 45.761765 -0.245116 31,100 337 395 1856
2021-09-26 08:25:59 GMT 45.755722 -0.241364 31,075 337 395 1856
2021-09-26 08:25:55 GMT 45.748764 -0.237077 30,950 337 395 1792
2021-09-26 08:25:52 GMT 45.744465 -0.234352 30,875 337 395 1856
2021-09-26 08:25:47 GMT 45.735764 -0.229038 30,700 337 396 2240
2021-09-26 08:25:42 GMT 45.727055 -0.223640 30,500 337 396 2176
2021-09-26 08:25:37 GMT 45.718597 -0.218454 30,325 337 396 1920
2021-09-26 08:25:34 GMT 45.714157 -0.215675 30,250 337 396 1856
2021-09-26 08:25:31 GMT 45.709946 -0.213095 30,150 337 396 2112
2021-09-26 08:25:27 GMT 45.702713 -0.208606 29,850 337 397 2176
2021-09-26 08:25:24 GMT 45.695538 -0.204208 29,850 337 397 2048
2021-09-26 08:25:21 GMT 45.692184 -0.202148 29,800 337 397 1920
2021-09-26 08:25:17 GMT 45.685528 -0.198029 29,450 337 396 2112
2021-09-26 08:25:14 GMT 45.680054 -0.194672 29,600 337 396 1984
2021-09-26 08:25:10 GMT 45.674103 -0.190988 29,450 337 396 2112
2021-09-26 08:25:05 GMT 45.666210 -0.186081 29,275 337 396 2112
2021-09-26 08:25:02 GMT 45.660206 -0.182442 29,075 337 396 1984
2021-09-26 08:24:59 GMT 45.655838 -0.179734 29,075 337 396 1984
2021-09-26 08:24:56 GMT 45.649498 -0.175850 28,900 337 396 2112
2021-09-26 08:24:52 GMT 45.643444 -0.172073 28,725 337 396 2240
2021-09-26 08:24:48 GMT 45.635532 -0.167198 28,625 337 396 2176
2021-09-26 08:24:44 GMT 45.628178 -0.162735 28,475 337 396 1984
2021-09-26 08:24:39 GMT 45.621414 -0.158498 28,200 337 395 1984
2021-09-26 08:24:36 GMT 45.617050 -0.155869 28,200 337 395 2176
2021-09-26 08:24:33 GMT 45.611416 -0.152367 28,150 337 395 2240
2021-09-26 08:24:29 GMT 45.604752 -0.148248 28,000 337 395 2112
2021-09-26 08:24:25 GMT 45.590195 -0.139339 27,675 337 393 1984
2021-09-26 08:24:20 GMT 45.590195 -0.139339 27,700 337 394 1984
2021-09-26 08:24:16 GMT 45.583099 -0.134984 27,575 337 393 2048
2021-09-26 08:24:13 GMT 45.576595 -0.131012 27,425 337 393 2112
2021-09-26 08:24:10 GMT 45.570831 -0.127415 27,325 337 391 2112
2021-09-26 08:24:07 GMT 45.567471 -0.125381 27,200 337 391 2112
2021-09-26 08:24:04 GMT 45.563095 -0.122725 27,125 337 391 2112
2021-09-26 08:24:00 GMT 45.556183 -0.118438 26,950 337 391 2176
2021-09-26 08:23:57 GMT 45.545918 -0.112208 26,850 337 391 2240
2021-09-26 08:23:54 GMT 45.545918 -0.112208 26,775 337 391 2240
2021-09-26 08:23:49 GMT 45.538700 -0.107720 26,575 337 389 2112
2021-09-26 08:23:46 GMT 45.532372 -0.103901 26,475 337 389 1984
2021-09-26 08:23:41 GMT 45.524506 -0.099073 26,325 337 387 2112
2021-09-26 08:23:36 GMT 45.515751 -0.093719 26,025 337 386 2304
2021-09-26 08:23:32 GMT 45.510353 -0.090436 26,025 337 386 2304
2021-09-26 08:23:29 GMT 45.503586 -0.086256 25,850 337 386 2240
2021-09-26 08:23:26 GMT 45.500565 -0.084425 25,725 337 385 2304
2021-09-26 08:23:23 GMT 45.494751 -0.080893 25,650 337 385 2368
2021-09-26 08:23:20 GMT 45.483261 -0.073831 25,125 337 384 2432
2021-09-26 08:23:16 GMT 45.483261 -0.073831 25,200 337 384 2304
2021-09-26 08:23:13 GMT 45.469990 -0.065784 25,150 337 384 2304
2021-09-26 08:23:08 GMT 45.469990 -0.065784 24,925 337 383 2240
2021-09-26 08:23:05 GMT 45.466049 -0.063368 24,025 337 381 2496
2021-09-26 08:23:00 GMT 45.456490 -0.057544 24,725 337 381 2496
2021-09-26 08:22:57 GMT 45.452087 -0.054866 24,600 337 381 2496
2021-09-26 08:22:55 GMT 45.449707 -0.053428 24,025 337 378 2432
2021-09-26 08:22:52 GMT 45.444763 -0.050419 24,425 337 380 2432
2021-09-26 08:22:48 GMT 45.437714 -0.046169 24,125 337 379 2368
2021-09-26 08:22:44 GMT 45.431492 -0.042338 24,100 337 379 2368
2021-09-26 08:22:40 GMT 45.425255 -0.038519 23,800 337 378 2432
2021-09-26 08:22:36 GMT 45.417068 -0.033548 23,725 337 375 2240
2021-09-26 08:22:32 GMT 45.405441 -0.026485 23,575 337 376 2368
2021-09-26 08:22:28 GMT 45.405441 -0.026485 23,450 337 375 2240
2021-09-26 08:22:23 GMT 45.398998 -0.022576 23,200 337 374 2624
2021-09-26 08:22:20 GMT 45.392990 -0.018899 23,125 337 374 2624
2021-09-26 08:22:17 GMT 45.389053 -0.016545 23,025 337 374 2624
2021-09-26 08:22:13 GMT 45.381912 -0.012163 22,875 337 373 2560
2021-09-26 08:22:10 GMT 45.372437 -0.006409 22,425 337 371 2432
2021-09-26 08:22:07 GMT 45.372437 -0.006409 22,575 337 371 2432
2021-09-26 08:22:04 GMT 45.367905 -0.003662 22,450 337 370 2368
2021-09-26 08:22:01 GMT 45.362877 -0.000603 22,325 337 370 2496
2021-09-26 08:21:58 GMT 45.356781 0.003139 22,150 337 368 2688
2021-09-26 08:21:54 GMT 45.352112 0.005951 22,025 337 368 2880
2021-09-26 08:21:51 GMT 45.346939 0.009090 21,625 337 367 2880
2021-09-26 08:21:47 GMT 45.341446 0.012425 21,525 337 367 2816
2021-09-26 08:21:44 GMT 45.336342 0.015542 21,525 337 367 2816
2021-09-26 08:21:40 GMT 45.328537 0.020338 21,300 337 366 2624
2021-09-26 08:21:36 GMT 45.324284 0.022911 21,150 337 365 2688
2021-09-26 08:21:33 GMT 45.320091 0.025456 21,075 337 365 2688
2021-09-26 08:21:29 GMT 45.313019 0.029810 20,850 337 363 2816
2021-09-26 08:21:26 GMT 45.309219 0.032109 19,950 337 363 2880
2021-09-26 08:21:23 GMT 45.304451 0.035036 20,575 337 362 3008
2021-09-26 08:21:20 GMT 45.299149 0.038256 20,350 337 362 3008
2021-09-26 08:21:17 GMT 45.294250 0.041264 19,950 337 360 3008
2021-09-26 08:21:13 GMT 45.288765 0.044615 20,075 337 361 2944
2021-09-26 08:21:09 GMT 45.282200 0.048635 19,850 337 360 3200
2021-09-26 08:21:04 GMT 45.273869 0.053659 19,550 337 360 3712
2021-09-26 08:20:59 GMT 45.266830 0.057940 19,275 337 361 3392
2021-09-26 08:20:53 GMT 45.258224 0.063171 18,975 337 361 2880
2021-09-26 08:20:48 GMT 45.250717 0.067749 18,775 337 361 2496
2021-09-26 08:20:45 GMT 45.245144 0.071143 18,625 337 362 2048
2021-09-26 08:20:43 GMT 45.242294 0.072850 18,575 337 362 1920
2021-09-26 08:20:37 GMT 45.232296 0.078914 18,400 337 363 1216
2021-09-26 08:20:32 GMT 45.226383 0.082531 18,325 337 363 1024
2021-09-26 08:20:29 GMT 45.220139 0.086321 18,250 337 362 1024
2021-09-26 08:20:26 GMT 45.216202 0.088675 18,200 337 362 1920
2021-09-26 08:20:23 GMT 45.210369 0.092178 18,125 337 362 1472
2021-09-26 08:20:20 GMT 45.206635 0.094430 18,075 337 362 1920
2021-09-26 08:20:18 GMT 45.204456 0.095795 18,025 337 362 1984
2021-09-26 08:20:12 GMT 45.194595 0.101689 17,800 338 361 1920
2021-09-26 08:20:08 GMT 45.188828 0.105155 17,600 338 361 1920
2021-09-26 08:20:05 GMT 45.184021 0.108055 17,600 338 361 1920
2021-09-26 08:20:02 GMT 45.179550 0.110734 17,500 338 361 1920
2021-09-26 08:19:55 GMT 45.167309 0.118036 17,225 337 362 2176
2021-09-26 08:19:50 GMT 45.160217 0.122288 17,050 337 360 2624
2021-09-26 08:19:46 GMT 45.155392 0.125204 16,900 337 359 3200
2021-09-26 08:19:42 GMT 45.148270 0.129482 16,650 338 358 3136
2021-09-26 08:19:36 GMT 45.139751 0.134650 16,350 337 356 2944
2021-09-26 08:19:33 GMT 45.135132 0.137394 16,200 337 354 3264
2021-09-26 08:19:30 GMT 45.129230 0.140947 16,000 337 354 3328
2021-09-26 08:19:25 GMT 45.123779 0.144261 15,800 337 353 3328
2021-09-26 08:19:22 GMT 45.116520 0.148650 15,550 337 352 3008
2021-09-26 08:19:18 GMT 45.113342 0.150539 15,425 337 351 2880
2021-09-26 08:19:16 GMT 45.110184 0.152435 14,950 337 347 3328
2021-09-26 08:19:13 GMT 45.102833 0.156823 14,950 337 347 3328
2021-09-26 08:19:09 GMT 45.099152 0.159040 14,925 337 346 3520
2021-09-26 08:19:05 GMT 45.092926 0.162768 14,425 338 345 3520
2021-09-26 08:19:01 GMT 45.088497 0.165465 14,525 338 346 3456
2021-09-26 08:18:59 GMT 45.084259 0.167943 14,350 338 345 3648
2021-09-26 08:18:57 GMT 45.081299 0.169700 14,075 338 345 3648
2021-09-26 08:18:54 GMT 45.077229 0.172164 14,050 338 344 3648
2021-09-26 08:18:50 GMT 45.071457 0.175580 13,625 338 344 3584
2021-09-26 08:18:47 GMT 45.066570 0.178461 13,625 338 343 3520
2021-09-26 08:18:44 GMT 45.062073 0.181144 13,450 338 342 3200
2021-09-26 08:18:41 GMT 45.056606 0.184423 13,250 338 341 2944
2021-09-26 08:18:38 GMT 45.053329 0.186375 13,150 338 341 2880
2021-09-26 08:18:36 GMT 45.046509 0.190495 12,925 338 338 3264
2021-09-26 08:18:33 GMT 45.046509 0.190495 12,850 338 338 3328
2021-09-26 08:18:28 GMT 45.039383 0.194739 12,625 337 337 3136
2021-09-26 08:18:26 GMT 45.037033 0.196119 12,475 336 336 2752
2021-09-26 08:18:23 GMT 45.032028 0.199228 12,200 333 331 2560
2021-09-26 08:18:19 GMT 45.025452 0.203836 12,200 332 329 2624
2021-09-26 08:18:15 GMT 45.020416 0.207694 12,025 331 327 2752
2021-09-26 08:18:10 GMT 45.014374 0.212468 11,825 331 325 2688
2021-09-26 08:18:06 GMT 45.009521 0.216391 11,650 331 324 2560
2021-09-26 08:18:02 GMT 45.003910 0.220865 11,475 331 320 2752
2021-09-26 08:17:58 GMT 44.998993 0.224762 11,275 331 318 2880
2021-09-26 08:17:54 GMT 44.993668 0.229038 11,100 331 317 2304
2021-09-26 08:17:50 GMT 44.988174 0.233392 10,975 331 312 1216
2021-09-26 08:17:44 GMT 44.980728 0.239280 10,875 331 301 832
2021-09-26 08:17:39 GMT 44.975140 0.243709 10,800 331 295 1088
2021-09-26 08:17:34 GMT 44.968689 0.248762 10,650 332 287 2304
2021-09-26 08:17:30 GMT 44.963699 0.252620 10,450 332 285 3072
2021-09-26 08:17:24 GMT 44.957016 0.257656 10,100 331 283 3712
2021-09-26 08:17:19 GMT 44.951752 0.261841 9,850 327 283 3392
2021-09-26 08:17:13 GMT 44.945114 0.268696 9,500 319 279 3072
2021-09-26 08:17:09 GMT 44.941624 0.273117 9,325 315 277 3136
2021-09-26 08:17:05 GMT 44.938503 0.277740 9,125 311 275 3264
2021-09-26 08:17:02 GMT 44.936085 0.281826 8,950 307 274 3328
2021-09-26 08:16:58 GMT 44.933029 0.288064 8,725 301 271 3392
2021-09-26 08:16:55 GMT 44.931103 0.292745 8,500 297 270 2944
2021-09-26 08:16:51 GMT 44.928818 0.298985 8,350 297 270 2944
2021-09-26 08:16:46 GMT 44.925610 0.308086 8,050 297 265 2560
2021-09-26 08:16:38 GMT 44.921082 0.321023 7,725 297 262 2304
2021-09-26 08:16:35 GMT 44.920071 0.323896 7,675 297 259 1920
2021-09-26 08:16:32 GMT 44.918159 0.329322 7,575 297 254 896
2021-09-26 08:16:28 GMT 44.916092 0.335214 7,525 297 248 896
2021-09-26 08:16:25 GMT 44.914719 0.339007 7,475 297 243 1024
2021-09-26 08:16:20 GMT 44.912247 0.345873 7,375 298 237 1536
2021-09-26 08:16:15 GMT 44.909500 0.352674 7,200 305 232 2560
2021-09-26 08:16:10 GMT 44.906429 0.358529 6,950 312 232 3200
2021-09-26 08:16:05 GMT 44.902176 0.364314 6,650 323 234 3264
2021-09-26 08:15:57 GMT 44.894623 0.370592 6,150 339 237 2944
2021-09-26 08:15:54 GMT 44.892380 0.371769 6,150 341 237 2944
2021-09-26 08:15:44 GMT 44.881664 0.376818 5,600 343 236 3072
2021-09-26 08:15:35 GMT 44.871002 0.381775 5,100 342 235 2944
2021-09-26 08:15:24 GMT 44.860855 0.386531 4,625 342 232 2752
2021-09-26 08:15:14 GMT 44.850174 0.390996 4,150 345 228 2880
2021-09-26 08:15:04 GMT 44.840424 0.395900 3,650 328 223 3072
2021-09-26 08:14:54 GMT 44.832645 0.405422 3,150 303 217 2880
2021-09-26 08:14:45 GMT 44.829163 0.415846 2,775 280 212 2112
2021-09-26 08:14:42 GMT 44.828568 0.420031 2,675 279 211 1984
2021-09-26 08:14:33 GMT 44.827698 0.432129 2,425 275 198 2112
2021-09-26 08:14:22 GMT 44.826778 0.445951 2,000 276 190 1856
2021-09-26 08:14:13 GMT 44.826050 0.456914 1,800 275 179 1216

Making use of Plane Finder data

You are free to use the raw flight data, aircraft information and images provided in this report for your own purposes provided the data is correctly attributed to Plane Finder. We ask that you please credit Plane Finder and link to planefinder.net in close proximity to the content.

Optionally one of the following logos (no smaller then 150x24px) can be used and must link to planefinder.net

Embedding the Plane Finder map

You are welcome to embed the Plane Finder playback map on your website to offer visitors a more interactive experience. We suggest using the following HTML code:

<iframe src="//planefinder.net/data/report/FR1683-EI-DWE-7700-squawk-2021-09-26/map" width="800" height="600" seamless="seamless"></iframe>

Where our data comes from

Plane Finder has a global network of data feeds and antenna radars that receive data broadcast directly from aircraft. The primary technologies used are ADS-B and MLAT. We also show feeds from the FAA and a FLARM glider feed.

Click here to find out more about the Plane Finder network.

How we collect our data